<?xml version="1.0" encoding="UTF-8" standalone="no" ?>
<gpx xmlns="http://www.topografix.com/GPX/1/1" xmlns:xsi="http://www.w3.org/2001/XMLSchema-instance" xsi:schemaLocation="http://www.topografix.com/GPX/1/1 http://www.topografix.com/GPX/1/1/gpx.xsd" version="1.1" creator="VisuGPX - https://www.visugpx.com">
  <metadata>
    <name>La randonnée du berger d\'Ouillon</name>
    <desc><![CDATA[9,5km de randonnée très facile et agréable. Le départ et l\'arrivée ont lieu devant la ferme d\'un nouveau berger, producteur d\'excellents fromages \"pur brebis\".]]></desc>
  </metadata>
  <trk>
    <name><![CDATA[Tracé actuel: 31 MARS 2013 16:32]]></name>
    <trkseg>
      <trkpt lat="43.32669" lon="-0.21712">
        <ele>345.25</ele>
        <time>2013-03-31T14:32:08Z</time>
      </trkpt>
      <trkpt lat="43.32661" lon="-0.2171">
        <ele>331.31</ele>
        <time>2013-03-31T14:32:38Z</time>
      </trkpt>
      <trkpt lat="43.32651" lon="-0.21703">
        <ele>330.83</ele>
        <time>2013-03-31T14:32:43Z</time>
      </trkpt>
      <trkpt lat="43.32641" lon="-0.21696">
        <ele>329.87</ele>
        <time>2013-03-31T14:32:48Z</time>
      </trkpt>
      <trkpt lat="43.32631" lon="-0.21687">
        <ele>328.43</ele>
        <time>2013-03-31T14:32:53Z</time>
      </trkpt>
      <trkpt lat="43.32621" lon="-0.21678">
        <ele>328.43</ele>
        <time>2013-03-31T14:32:58Z</time>
      </trkpt>
      <trkpt lat="43.32612" lon="-0.2167">
        <ele>328.43</ele>
        <time>2013-03-31T14:33:02Z</time>
      </trkpt>
      <trkpt lat="43.32603" lon="-0.21663">
        <ele>328.43</ele>
        <time>2013-03-31T14:33:06Z</time>
      </trkpt>
      <trkpt lat="43.32594" lon="-0.21655">
        <ele>327.47</ele>
        <time>2013-03-31T14:33:10Z</time>
      </trkpt>
      <trkpt lat="43.32585" lon="-0.21649">
        <ele>327.47</ele>
        <time>2013-03-31T14:33:14Z</time>
      </trkpt>
      <trkpt lat="43.32575" lon="-0.21643">
        <ele>327.95</ele>
        <time>2013-03-31T14:33:18Z</time>
      </trkpt>
      <trkpt lat="43.32565" lon="-0.21638">
        <ele>327.47</ele>
        <time>2013-03-31T14:33:22Z</time>
      </trkpt>
      <trkpt lat="43.32554" lon="-0.21634">
        <ele>326.99</ele>
        <time>2013-03-31T14:33:26Z</time>
      </trkpt>
      <trkpt lat="43.32542" lon="-0.21629">
        <ele>326.99</ele>
        <time>2013-03-31T14:33:30Z</time>
      </trkpt>
      <trkpt lat="43.32531" lon="-0.21625">
        <ele>326.99</ele>
        <time>2013-03-31T14:33:34Z</time>
      </trkpt>
      <trkpt lat="43.3252" lon="-0.21622">
        <ele>327.47</ele>
        <time>2013-03-31T14:33:38Z</time>
      </trkpt>
      <trkpt lat="43.32509" lon="-0.21618">
        <ele>327.47</ele>
        <time>2013-03-31T14:33:42Z</time>
      </trkpt>
      <trkpt lat="43.32498" lon="-0.21612">
        <ele>327.47</ele>
        <time>2013-03-31T14:33:46Z</time>
      </trkpt>
      <trkpt lat="43.32487" lon="-0.21607">
        <ele>327.47</ele>
        <time>2013-03-31T14:33:50Z</time>
      </trkpt>
      <trkpt lat="43.32477" lon="-0.21604">
        <ele>327.95</ele>
        <time>2013-03-31T14:33:54Z</time>
      </trkpt>
      <trkpt lat="43.3247" lon="-0.21596">
        <ele>327.95</ele>
        <time>2013-03-31T14:33:58Z</time>
      </trkpt>
      <trkpt lat="43.3247" lon="-0.21582">
        <ele>327.95</ele>
        <time>2013-03-31T14:34:03Z</time>
      </trkpt>
      <trkpt lat="43.32478" lon="-0.2157">
        <ele>327.47</ele>
        <time>2013-03-31T14:34:08Z</time>
      </trkpt>
      <trkpt lat="43.32486" lon="-0.21558">
        <ele>326.99</ele>
        <time>2013-03-31T14:34:12Z</time>
      </trkpt>
      <trkpt lat="43.32494" lon="-0.21546">
        <ele>326.5</ele>
        <time>2013-03-31T14:34:16Z</time>
      </trkpt>
      <trkpt lat="43.32502" lon="-0.21535">
        <ele>326.02</ele>
        <time>2013-03-31T14:34:20Z</time>
      </trkpt>
      <trkpt lat="43.32509" lon="-0.21521">
        <ele>326.5</ele>
        <time>2013-03-31T14:34:24Z</time>
      </trkpt>
      <trkpt lat="43.32514" lon="-0.21512">
        <ele>325.54</ele>
        <time>2013-03-31T14:34:27Z</time>
      </trkpt>
      <trkpt lat="43.3252" lon="-0.21502">
        <ele>325.06</ele>
        <time>2013-03-31T14:34:30Z</time>
      </trkpt>
      <trkpt lat="43.32527" lon="-0.2149">
        <ele>325.54</ele>
        <time>2013-03-31T14:34:33Z</time>
      </trkpt>
      <trkpt lat="43.32534" lon="-0.21478">
        <ele>324.1</ele>
        <time>2013-03-31T14:34:36Z</time>
      </trkpt>
      <trkpt lat="43.32541" lon="-0.21466">
        <ele>324.1</ele>
        <time>2013-03-31T14:34:39Z</time>
      </trkpt>
      <trkpt lat="43.32549" lon="-0.21452">
        <ele>322.66</ele>
        <time>2013-03-31T14:34:42Z</time>
      </trkpt>
      <trkpt lat="43.32556" lon="-0.21439">
        <ele>322.66</ele>
        <time>2013-03-31T14:34:45Z</time>
      </trkpt>
      <trkpt lat="43.32563" lon="-0.21427">
        <ele>322.66</ele>
        <time>2013-03-31T14:34:48Z</time>
      </trkpt>
      <trkpt lat="43.32569" lon="-0.21415">
        <ele>321.22</ele>
        <time>2013-03-31T14:34:51Z</time>
      </trkpt>
      <trkpt lat="43.32577" lon="-0.21401">
        <ele>319.78</ele>
        <time>2013-03-31T14:34:54Z</time>
      </trkpt>
      <trkpt lat="43.32582" lon="-0.21391">
        <ele>319.3</ele>
        <time>2013-03-31T14:34:56Z</time>
      </trkpt>
      <trkpt lat="43.32589" lon="-0.21381">
        <ele>319.3</ele>
        <time>2013-03-31T14:34:58Z</time>
      </trkpt>
      <trkpt lat="43.32597" lon="-0.21368">
        <ele>318.81</ele>
        <time>2013-03-31T14:35:01Z</time>
      </trkpt>
      <trkpt lat="43.32603" lon="-0.21358">
        <ele>318.81</ele>
        <time>2013-03-31T14:35:04Z</time>
      </trkpt>
      <trkpt lat="43.32609" lon="-0.21348">
        <ele>319.3</ele>
        <time>2013-03-31T14:35:07Z</time>
      </trkpt>
      <trkpt lat="43.32616" lon="-0.21337">
        <ele>319.3</ele>
        <time>2013-03-31T14:35:11Z</time>
      </trkpt>
      <trkpt lat="43.32623" lon="-0.21325">
        <ele>319.3</ele>
        <time>2013-03-31T14:35:15Z</time>
      </trkpt>
      <trkpt lat="43.32631" lon="-0.21315">
        <ele>318.81</ele>
        <time>2013-03-31T14:35:19Z</time>
      </trkpt>
      <trkpt lat="43.32638" lon="-0.21305">
        <ele>319.78</ele>
        <time>2013-03-31T14:35:23Z</time>
      </trkpt>
      <trkpt lat="43.32646" lon="-0.21295">
        <ele>320.26</ele>
        <time>2013-03-31T14:35:27Z</time>
      </trkpt>
      <trkpt lat="43.32654" lon="-0.21285">
        <ele>320.74</ele>
        <time>2013-03-31T14:35:31Z</time>
      </trkpt>
      <trkpt lat="43.32662" lon="-0.21275">
        <ele>321.22</ele>
        <time>2013-03-31T14:35:35Z</time>
      </trkpt>
      <trkpt lat="43.3267" lon="-0.21265">
        <ele>321.7</ele>
        <time>2013-03-31T14:35:39Z</time>
      </trkpt>
      <trkpt lat="43.32677" lon="-0.21256">
        <ele>321.7</ele>
        <time>2013-03-31T14:35:43Z</time>
      </trkpt>
      <trkpt lat="43.32685" lon="-0.21246">
        <ele>322.18</ele>
        <time>2013-03-31T14:35:47Z</time>
      </trkpt>
      <trkpt lat="43.32691" lon="-0.21237">
        <ele>322.66</ele>
        <time>2013-03-31T14:35:51Z</time>
      </trkpt>
      <trkpt lat="43.32699" lon="-0.21228">
        <ele>323.14</ele>
        <time>2013-03-31T14:35:55Z</time>
      </trkpt>
      <trkpt lat="43.32706" lon="-0.21218">
        <ele>323.62</ele>
        <time>2013-03-31T14:35:59Z</time>
      </trkpt>
      <trkpt lat="43.32714" lon="-0.2121">
        <ele>324.1</ele>
        <time>2013-03-31T14:36:03Z</time>
      </trkpt>
      <trkpt lat="43.32721" lon="-0.21202">
        <ele>324.1</ele>
        <time>2013-03-31T14:36:07Z</time>
      </trkpt>
      <trkpt lat="43.32729" lon="-0.21193">
        <ele>324.58</ele>
        <time>2013-03-31T14:36:11Z</time>
      </trkpt>
      <trkpt lat="43.32735" lon="-0.21183">
        <ele>324.58</ele>
        <time>2013-03-31T14:36:15Z</time>
      </trkpt>
      <trkpt lat="43.32742" lon="-0.21174">
        <ele>325.06</ele>
        <time>2013-03-31T14:36:19Z</time>
      </trkpt>
      <trkpt lat="43.32749" lon="-0.21165">
        <ele>325.54</ele>
        <time>2013-03-31T14:36:23Z</time>
      </trkpt>
      <trkpt lat="43.32758" lon="-0.21157">
        <ele>326.02</ele>
        <time>2013-03-31T14:36:28Z</time>
      </trkpt>
      <trkpt lat="43.32769" lon="-0.21159">
        <ele>326.99</ele>
        <time>2013-03-31T14:36:33Z</time>
      </trkpt>
      <trkpt lat="43.32777" lon="-0.21166">
        <ele>326.02</ele>
        <time>2013-03-31T14:36:37Z</time>
      </trkpt>
      <trkpt lat="43.32786" lon="-0.21174">
        <ele>326.02</ele>
        <time>2013-03-31T14:36:41Z</time>
      </trkpt>
      <trkpt lat="43.32794" lon="-0.21182">
        <ele>325.06</ele>
        <time>2013-03-31T14:36:44Z</time>
      </trkpt>
      <trkpt lat="43.32802" lon="-0.2119">
        <ele>324.58</ele>
        <time>2013-03-31T14:36:47Z</time>
      </trkpt>
      <trkpt lat="43.32811" lon="-0.21198">
        <ele>323.62</ele>
        <time>2013-03-31T14:36:50Z</time>
      </trkpt>
      <trkpt lat="43.32821" lon="-0.21207">
        <ele>323.14</ele>
        <time>2013-03-31T14:36:53Z</time>
      </trkpt>
      <trkpt lat="43.32831" lon="-0.21216">
        <ele>322.18</ele>
        <time>2013-03-31T14:36:56Z</time>
      </trkpt>
      <trkpt lat="43.32841" lon="-0.21226">
        <ele>321.7</ele>
        <time>2013-03-31T14:36:59Z</time>
      </trkpt>
      <trkpt lat="43.32849" lon="-0.21235">
        <ele>321.22</ele>
        <time>2013-03-31T14:37:02Z</time>
      </trkpt>
      <trkpt lat="43.32858" lon="-0.21243">
        <ele>321.7</ele>
        <time>2013-03-31T14:37:05Z</time>
      </trkpt>
      <trkpt lat="43.32867" lon="-0.2125">
        <ele>321.22</ele>
        <time>2013-03-31T14:37:08Z</time>
      </trkpt>
      <trkpt lat="43.32875" lon="-0.21258">
        <ele>321.7</ele>
        <time>2013-03-31T14:37:11Z</time>
      </trkpt>
      <trkpt lat="43.32883" lon="-0.21266">
        <ele>321.7</ele>
        <time>2013-03-31T14:37:14Z</time>
      </trkpt>
      <trkpt lat="43.32891" lon="-0.21273">
        <ele>321.22</ele>
        <time>2013-03-31T14:37:17Z</time>
      </trkpt>
      <trkpt lat="43.329" lon="-0.2128">
        <ele>322.18</ele>
        <time>2013-03-31T14:37:20Z</time>
      </trkpt>
      <trkpt lat="43.32907" lon="-0.21288">
        <ele>321.7</ele>
        <time>2013-03-31T14:37:23Z</time>
      </trkpt>
      <trkpt lat="43.32915" lon="-0.21296">
        <ele>321.7</ele>
        <time>2013-03-31T14:37:26Z</time>
      </trkpt>
      <trkpt lat="43.32923" lon="-0.21302">
        <ele>321.7</ele>
        <time>2013-03-31T14:37:29Z</time>
      </trkpt>
      <trkpt lat="43.32931" lon="-0.21309">
        <ele>322.66</ele>
        <time>2013-03-31T14:37:32Z</time>
      </trkpt>
      <trkpt lat="43.32939" lon="-0.21316">
        <ele>322.18</ele>
        <time>2013-03-31T14:37:35Z</time>
      </trkpt>
      <trkpt lat="43.32946" lon="-0.21323">
        <ele>322.66</ele>
        <time>2013-03-31T14:37:38Z</time>
      </trkpt>
      <trkpt lat="43.32955" lon="-0.21331">
        <ele>322.66</ele>
        <time>2013-03-31T14:37:41Z</time>
      </trkpt>
      <trkpt lat="43.32962" lon="-0.21339">
        <ele>323.14</ele>
        <time>2013-03-31T14:37:44Z</time>
      </trkpt>
      <trkpt lat="43.3297" lon="-0.21346">
        <ele>323.14</ele>
        <time>2013-03-31T14:37:47Z</time>
      </trkpt>
      <trkpt lat="43.32977" lon="-0.21353">
        <ele>322.66</ele>
        <time>2013-03-31T14:37:50Z</time>
      </trkpt>
      <trkpt lat="43.32985" lon="-0.2136">
        <ele>322.66</ele>
        <time>2013-03-31T14:37:53Z</time>
      </trkpt>
      <trkpt lat="43.32993" lon="-0.21367">
        <ele>323.14</ele>
        <time>2013-03-31T14:37:56Z</time>
      </trkpt>
      <trkpt lat="43.33001" lon="-0.21374">
        <ele>322.66</ele>
        <time>2013-03-31T14:37:59Z</time>
      </trkpt>
      <trkpt lat="43.33008" lon="-0.21382">
        <ele>322.66</ele>
        <time>2013-03-31T14:38:02Z</time>
      </trkpt>
      <trkpt lat="43.33016" lon="-0.21389">
        <ele>322.66</ele>
        <time>2013-03-31T14:38:05Z</time>
      </trkpt>
      <trkpt lat="43.33024" lon="-0.21397">
        <ele>322.18</ele>
        <time>2013-03-31T14:38:08Z</time>
      </trkpt>
      <trkpt lat="43.33031" lon="-0.21404">
        <ele>322.18</ele>
        <time>2013-03-31T14:38:11Z</time>
      </trkpt>
      <trkpt lat="43.33039" lon="-0.21411">
        <ele>321.7</ele>
        <time>2013-03-31T14:38:14Z</time>
      </trkpt>
      <trkpt lat="43.33047" lon="-0.21417">
        <ele>322.18</ele>
        <time>2013-03-31T14:38:17Z</time>
      </trkpt>
      <trkpt lat="43.33054" lon="-0.21424">
        <ele>321.7</ele>
        <time>2013-03-31T14:38:20Z</time>
      </trkpt>
      <trkpt lat="43.33062" lon="-0.21432">
        <ele>322.18</ele>
        <time>2013-03-31T14:38:23Z</time>
      </trkpt>
      <trkpt lat="43.33071" lon="-0.2144">
        <ele>321.7</ele>
        <time>2013-03-31T14:38:26Z</time>
      </trkpt>
      <trkpt lat="43.33079" lon="-0.21449">
        <ele>321.7</ele>
        <time>2013-03-31T14:38:29Z</time>
      </trkpt>
      <trkpt lat="43.33088" lon="-0.21457">
        <ele>321.7</ele>
        <time>2013-03-31T14:38:32Z</time>
      </trkpt>
      <trkpt lat="43.33097" lon="-0.21466">
        <ele>321.7</ele>
        <time>2013-03-31T14:38:35Z</time>
      </trkpt>
      <trkpt lat="43.33105" lon="-0.21474">
        <ele>321.7</ele>
        <time>2013-03-31T14:38:38Z</time>
      </trkpt>
      <trkpt lat="43.33114" lon="-0.21481">
        <ele>321.22</ele>
        <time>2013-03-31T14:38:41Z</time>
      </trkpt>
      <trkpt lat="43.33123" lon="-0.21489">
        <ele>321.7</ele>
        <time>2013-03-31T14:38:44Z</time>
      </trkpt>
      <trkpt lat="43.33131" lon="-0.21497">
        <ele>321.22</ele>
        <time>2013-03-31T14:38:47Z</time>
      </trkpt>
      <trkpt lat="43.33141" lon="-0.21505">
        <ele>321.7</ele>
        <time>2013-03-31T14:38:50Z</time>
      </trkpt>
      <trkpt lat="43.33149" lon="-0.21514">
        <ele>320.74</ele>
        <time>2013-03-31T14:38:53Z</time>
      </trkpt>
      <trkpt lat="43.33157" lon="-0.21522">
        <ele>320.74</ele>
        <time>2013-03-31T14:38:56Z</time>
      </trkpt>
      <trkpt lat="43.33165" lon="-0.21529">
        <ele>321.22</ele>
        <time>2013-03-31T14:38:59Z</time>
      </trkpt>
      <trkpt lat="43.33174" lon="-0.21537">
        <ele>321.22</ele>
        <time>2013-03-31T14:39:02Z</time>
      </trkpt>
      <trkpt lat="43.33183" lon="-0.21545">
        <ele>321.7</ele>
        <time>2013-03-31T14:39:05Z</time>
      </trkpt>
      <trkpt lat="43.3319" lon="-0.21553">
        <ele>321.7</ele>
        <time>2013-03-31T14:39:08Z</time>
      </trkpt>
      <trkpt lat="43.33199" lon="-0.21561">
        <ele>321.7</ele>
        <time>2013-03-31T14:39:11Z</time>
      </trkpt>
      <trkpt lat="43.33208" lon="-0.21568">
        <ele>321.7</ele>
        <time>2013-03-31T14:39:14Z</time>
      </trkpt>
      <trkpt lat="43.33216" lon="-0.21576">
        <ele>321.7</ele>
        <time>2013-03-31T14:39:17Z</time>
      </trkpt>
      <trkpt lat="43.33223" lon="-0.21584">
        <ele>322.18</ele>
        <time>2013-03-31T14:39:20Z</time>
      </trkpt>
      <trkpt lat="43.33232" lon="-0.21591">
        <ele>322.18</ele>
        <time>2013-03-31T14:39:23Z</time>
      </trkpt>
      <trkpt lat="43.3324" lon="-0.21599">
        <ele>322.66</ele>
        <time>2013-03-31T14:39:26Z</time>
      </trkpt>
      <trkpt lat="43.33248" lon="-0.21606">
        <ele>322.18</ele>
        <time>2013-03-31T14:39:29Z</time>
      </trkpt>
      <trkpt lat="43.33257" lon="-0.21614">
        <ele>322.18</ele>
        <time>2013-03-31T14:39:32Z</time>
      </trkpt>
      <trkpt lat="43.33265" lon="-0.21621">
        <ele>322.18</ele>
        <time>2013-03-31T14:39:35Z</time>
      </trkpt>
      <trkpt lat="43.33274" lon="-0.2163">
        <ele>322.18</ele>
        <time>2013-03-31T14:39:38Z</time>
      </trkpt>
      <trkpt lat="43.33281" lon="-0.21637">
        <ele>322.18</ele>
        <time>2013-03-31T14:39:41Z</time>
      </trkpt>
      <trkpt lat="43.3329" lon="-0.21645">
        <ele>322.66</ele>
        <time>2013-03-31T14:39:44Z</time>
      </trkpt>
      <trkpt lat="43.33298" lon="-0.21653">
        <ele>322.18</ele>
        <time>2013-03-31T14:39:47Z</time>
      </trkpt>
      <trkpt lat="43.33308" lon="-0.21661">
        <ele>322.18</ele>
        <time>2013-03-31T14:39:50Z</time>
      </trkpt>
      <trkpt lat="43.33317" lon="-0.2167">
        <ele>321.7</ele>
        <time>2013-03-31T14:39:53Z</time>
      </trkpt>
      <trkpt lat="43.33327" lon="-0.2168">
        <ele>321.22</ele>
        <time>2013-03-31T14:39:56Z</time>
      </trkpt>
      <trkpt lat="43.33337" lon="-0.21689">
        <ele>320.74</ele>
        <time>2013-03-31T14:39:59Z</time>
      </trkpt>
      <trkpt lat="43.33347" lon="-0.21699">
        <ele>320.26</ele>
        <time>2013-03-31T14:40:02Z</time>
      </trkpt>
      <trkpt lat="43.33356" lon="-0.21708">
        <ele>320.74</ele>
        <time>2013-03-31T14:40:05Z</time>
      </trkpt>
      <trkpt lat="43.33365" lon="-0.21716">
        <ele>320.26</ele>
        <time>2013-03-31T14:40:08Z</time>
      </trkpt>
      <trkpt lat="43.33374" lon="-0.21724">
        <ele>320.26</ele>
        <time>2013-03-31T14:40:11Z</time>
      </trkpt>
      <trkpt lat="43.33384" lon="-0.21733">
        <ele>320.74</ele>
        <time>2013-03-31T14:40:14Z</time>
      </trkpt>
      <trkpt lat="43.33393" lon="-0.21741">
        <ele>320.74</ele>
        <time>2013-03-31T14:40:17Z</time>
      </trkpt>
      <trkpt lat="43.33402" lon="-0.2175">
        <ele>320.74</ele>
        <time>2013-03-31T14:40:20Z</time>
      </trkpt>
      <trkpt lat="43.33411" lon="-0.21758">
        <ele>321.22</ele>
        <time>2013-03-31T14:40:23Z</time>
      </trkpt>
      <trkpt lat="43.3342" lon="-0.21768">
        <ele>321.22</ele>
        <time>2013-03-31T14:40:26Z</time>
      </trkpt>
      <trkpt lat="43.33428" lon="-0.21777">
        <ele>321.22</ele>
        <time>2013-03-31T14:40:29Z</time>
      </trkpt>
      <trkpt lat="43.33437" lon="-0.21785">
        <ele>321.7</ele>
        <time>2013-03-31T14:40:33Z</time>
      </trkpt>
      <trkpt lat="43.33446" lon="-0.21793">
        <ele>321.22</ele>
        <time>2013-03-31T14:40:37Z</time>
      </trkpt>
      <trkpt lat="43.33455" lon="-0.21802">
        <ele>320.74</ele>
        <time>2013-03-31T14:40:41Z</time>
      </trkpt>
      <trkpt lat="43.33463" lon="-0.21808">
        <ele>320.74</ele>
        <time>2013-03-31T14:40:44Z</time>
      </trkpt>
      <trkpt lat="43.33472" lon="-0.21816">
        <ele>321.22</ele>
        <time>2013-03-31T14:40:47Z</time>
      </trkpt>
      <trkpt lat="43.33481" lon="-0.21823">
        <ele>321.22</ele>
        <time>2013-03-31T14:40:50Z</time>
      </trkpt>
      <trkpt lat="43.33489" lon="-0.2183">
        <ele>321.7</ele>
        <time>2013-03-31T14:40:53Z</time>
      </trkpt>
      <trkpt lat="43.33497" lon="-0.21839">
        <ele>320.74</ele>
        <time>2013-03-31T14:40:56Z</time>
      </trkpt>
      <trkpt lat="43.33505" lon="-0.21849">
        <ele>320.74</ele>
        <time>2013-03-31T14:40:59Z</time>
      </trkpt>
      <trkpt lat="43.33514" lon="-0.21857">
        <ele>320.26</ele>
        <time>2013-03-31T14:41:02Z</time>
      </trkpt>
      <trkpt lat="43.33523" lon="-0.21864">
        <ele>319.78</ele>
        <time>2013-03-31T14:41:05Z</time>
      </trkpt>
      <trkpt lat="43.33534" lon="-0.21873">
        <ele>318.81</ele>
        <time>2013-03-31T14:41:08Z</time>
      </trkpt>
      <trkpt lat="43.33545" lon="-0.21884">
        <ele>318.81</ele>
        <time>2013-03-31T14:41:11Z</time>
      </trkpt>
      <trkpt lat="43.33557" lon="-0.2189">
        <ele>318.81</ele>
        <time>2013-03-31T14:41:14Z</time>
      </trkpt>
      <trkpt lat="43.33569" lon="-0.21887">
        <ele>318.81</ele>
        <time>2013-03-31T14:41:17Z</time>
      </trkpt>
      <trkpt lat="43.33579" lon="-0.21886">
        <ele>318.81</ele>
        <time>2013-03-31T14:41:20Z</time>
      </trkpt>
      <trkpt lat="43.33591" lon="-0.21886">
        <ele>318.81</ele>
        <time>2013-03-31T14:41:23Z</time>
      </trkpt>
      <trkpt lat="43.33603" lon="-0.21885">
        <ele>318.81</ele>
        <time>2013-03-31T14:41:26Z</time>
      </trkpt>
      <trkpt lat="43.33614" lon="-0.21886">
        <ele>319.3</ele>
        <time>2013-03-31T14:41:29Z</time>
      </trkpt>
      <trkpt lat="43.33625" lon="-0.21885">
        <ele>318.81</ele>
        <time>2013-03-31T14:41:32Z</time>
      </trkpt>
      <trkpt lat="43.33637" lon="-0.21886">
        <ele>318.81</ele>
        <time>2013-03-31T14:41:35Z</time>
      </trkpt>
      <trkpt lat="43.33648" lon="-0.21886">
        <ele>319.3</ele>
        <time>2013-03-31T14:41:38Z</time>
      </trkpt>
      <trkpt lat="43.3366" lon="-0.21887">
        <ele>319.3</ele>
        <time>2013-03-31T14:41:41Z</time>
      </trkpt>
      <trkpt lat="43.33672" lon="-0.21887">
        <ele>319.3</ele>
        <time>2013-03-31T14:41:44Z</time>
      </trkpt>
      <trkpt lat="43.33683" lon="-0.21889">
        <ele>319.3</ele>
        <time>2013-03-31T14:41:47Z</time>
      </trkpt>
      <trkpt lat="43.33694" lon="-0.21889">
        <ele>319.3</ele>
        <time>2013-03-31T14:41:50Z</time>
      </trkpt>
      <trkpt lat="43.33706" lon="-0.2189">
        <ele>319.3</ele>
        <time>2013-03-31T14:41:53Z</time>
      </trkpt>
      <trkpt lat="43.33717" lon="-0.21891">
        <ele>318.81</ele>
        <time>2013-03-31T14:41:56Z</time>
      </trkpt>
      <trkpt lat="43.33728" lon="-0.21891">
        <ele>318.81</ele>
        <time>2013-03-31T14:41:59Z</time>
      </trkpt>
      <trkpt lat="43.33739" lon="-0.21891">
        <ele>318.81</ele>
        <time>2013-03-31T14:42:02Z</time>
      </trkpt>
      <trkpt lat="43.3375" lon="-0.21893">
        <ele>318.81</ele>
        <time>2013-03-31T14:42:05Z</time>
      </trkpt>
      <trkpt lat="43.33761" lon="-0.21893">
        <ele>319.3</ele>
        <time>2013-03-31T14:42:08Z</time>
      </trkpt>
      <trkpt lat="43.33772" lon="-0.21895">
        <ele>319.3</ele>
        <time>2013-03-31T14:42:11Z</time>
      </trkpt>
      <trkpt lat="43.33783" lon="-0.21895">
        <ele>318.81</ele>
        <time>2013-03-31T14:42:14Z</time>
      </trkpt>
      <trkpt lat="43.33794" lon="-0.21897">
        <ele>318.81</ele>
        <time>2013-03-31T14:42:17Z</time>
      </trkpt>
      <trkpt lat="43.33806" lon="-0.21898">
        <ele>318.81</ele>
        <time>2013-03-31T14:42:20Z</time>
      </trkpt>
      <trkpt lat="43.33817" lon="-0.21899">
        <ele>318.33</ele>
        <time>2013-03-31T14:42:23Z</time>
      </trkpt>
      <trkpt lat="43.33829" lon="-0.219">
        <ele>318.33</ele>
        <time>2013-03-31T14:42:26Z</time>
      </trkpt>
      <trkpt lat="43.33841" lon="-0.21902">
        <ele>317.85</ele>
        <time>2013-03-31T14:42:29Z</time>
      </trkpt>
      <trkpt lat="43.33852" lon="-0.21904">
        <ele>317.85</ele>
        <time>2013-03-31T14:42:32Z</time>
      </trkpt>
      <trkpt lat="43.33863" lon="-0.21906">
        <ele>317.85</ele>
        <time>2013-03-31T14:42:35Z</time>
      </trkpt>
      <trkpt lat="43.33874" lon="-0.21907">
        <ele>317.37</ele>
        <time>2013-03-31T14:42:38Z</time>
      </trkpt>
      <trkpt lat="43.33885" lon="-0.21908">
        <ele>317.85</ele>
        <time>2013-03-31T14:42:41Z</time>
      </trkpt>
      <trkpt lat="43.33896" lon="-0.2191">
        <ele>317.85</ele>
        <time>2013-03-31T14:42:44Z</time>
      </trkpt>
      <trkpt lat="43.33907" lon="-0.21912">
        <ele>317.37</ele>
        <time>2013-03-31T14:42:47Z</time>
      </trkpt>
      <trkpt lat="43.33917" lon="-0.21912">
        <ele>317.85</ele>
        <time>2013-03-31T14:42:50Z</time>
      </trkpt>
      <trkpt lat="43.33928" lon="-0.21914">
        <ele>316.89</ele>
        <time>2013-03-31T14:42:53Z</time>
      </trkpt>
      <trkpt lat="43.33939" lon="-0.21915">
        <ele>317.37</ele>
        <time>2013-03-31T14:42:56Z</time>
      </trkpt>
      <trkpt lat="43.3395" lon="-0.21916">
        <ele>317.37</ele>
        <time>2013-03-31T14:42:59Z</time>
      </trkpt>
      <trkpt lat="43.33961" lon="-0.21918">
        <ele>316.89</ele>
        <time>2013-03-31T14:43:02Z</time>
      </trkpt>
      <trkpt lat="43.33974" lon="-0.2192">
        <ele>316.89</ele>
        <time>2013-03-31T14:43:05Z</time>
      </trkpt>
      <trkpt lat="43.33986" lon="-0.21922">
        <ele>315.93</ele>
        <time>2013-03-31T14:43:08Z</time>
      </trkpt>
      <trkpt lat="43.33999" lon="-0.21924">
        <ele>315.45</ele>
        <time>2013-03-31T14:43:11Z</time>
      </trkpt>
      <trkpt lat="43.34011" lon="-0.21926">
        <ele>315.45</ele>
        <time>2013-03-31T14:43:14Z</time>
      </trkpt>
      <trkpt lat="43.34023" lon="-0.21927">
        <ele>314.97</ele>
        <time>2013-03-31T14:43:17Z</time>
      </trkpt>
      <trkpt lat="43.34032" lon="-0.21927">
        <ele>314.97</ele>
        <time>2013-03-31T14:43:20Z</time>
      </trkpt>
      <trkpt lat="43.34041" lon="-0.21928">
        <ele>314.97</ele>
        <time>2013-03-31T14:43:23Z</time>
      </trkpt>
      <trkpt lat="43.34052" lon="-0.2193">
        <ele>315.45</ele>
        <time>2013-03-31T14:43:27Z</time>
      </trkpt>
      <trkpt lat="43.34063" lon="-0.21931">
        <ele>316.41</ele>
        <time>2013-03-31T14:43:31Z</time>
      </trkpt>
      <trkpt lat="43.34071" lon="-0.21933">
        <ele>316.89</ele>
        <time>2013-03-31T14:43:35Z</time>
      </trkpt>
      <trkpt lat="43.34081" lon="-0.21941">
        <ele>316.41</ele>
        <time>2013-03-31T14:43:40Z</time>
      </trkpt>
      <trkpt lat="43.34085" lon="-0.21957">
        <ele>316.41</ele>
        <time>2013-03-31T14:43:44Z</time>
      </trkpt>
      <trkpt lat="43.34088" lon="-0.2197">
        <ele>315.93</ele>
        <time>2013-03-31T14:43:47Z</time>
      </trkpt>
      <trkpt lat="43.34092" lon="-0.21984">
        <ele>314.97</ele>
        <time>2013-03-31T14:43:50Z</time>
      </trkpt>
      <trkpt lat="43.34098" lon="-0.21991">
        <ele>315.93</ele>
        <time>2013-03-31T14:43:53Z</time>
      </trkpt>
      <trkpt lat="43.34109" lon="-0.21989">
        <ele>315.93</ele>
        <time>2013-03-31T14:43:57Z</time>
      </trkpt>
      <trkpt lat="43.34121" lon="-0.21986">
        <ele>315.93</ele>
        <time>2013-03-31T14:44:01Z</time>
      </trkpt>
      <trkpt lat="43.34133" lon="-0.21985">
        <ele>315.93</ele>
        <time>2013-03-31T14:44:05Z</time>
      </trkpt>
      <trkpt lat="43.34146" lon="-0.21985">
        <ele>316.41</ele>
        <time>2013-03-31T14:44:09Z</time>
      </trkpt>
      <trkpt lat="43.34155" lon="-0.21984">
        <ele>315.93</ele>
        <time>2013-03-31T14:44:12Z</time>
      </trkpt>
      <trkpt lat="43.34164" lon="-0.21982">
        <ele>315.93</ele>
        <time>2013-03-31T14:44:15Z</time>
      </trkpt>
      <trkpt lat="43.34176" lon="-0.21981">
        <ele>315.93</ele>
        <time>2013-03-31T14:44:19Z</time>
      </trkpt>
      <trkpt lat="43.34185" lon="-0.21981">
        <ele>316.41</ele>
        <time>2013-03-31T14:44:22Z</time>
      </trkpt>
      <trkpt lat="43.34195" lon="-0.21981">
        <ele>315.93</ele>
        <time>2013-03-31T14:44:25Z</time>
      </trkpt>
      <trkpt lat="43.34204" lon="-0.2198">
        <ele>315.93</ele>
        <time>2013-03-31T14:44:28Z</time>
      </trkpt>
      <trkpt lat="43.34214" lon="-0.21977">
        <ele>315.93</ele>
        <time>2013-03-31T14:44:31Z</time>
      </trkpt>
      <trkpt lat="43.34224" lon="-0.21973">
        <ele>315.45</ele>
        <time>2013-03-31T14:44:34Z</time>
      </trkpt>
      <trkpt lat="43.34234" lon="-0.2197">
        <ele>315.93</ele>
        <time>2013-03-31T14:44:37Z</time>
      </trkpt>
      <trkpt lat="43.34244" lon="-0.21966">
        <ele>315.45</ele>
        <time>2013-03-31T14:44:40Z</time>
      </trkpt>
      <trkpt lat="43.34254" lon="-0.21964">
        <ele>314.97</ele>
        <time>2013-03-31T14:44:43Z</time>
      </trkpt>
      <trkpt lat="43.34265" lon="-0.2196">
        <ele>314.97</ele>
        <time>2013-03-31T14:44:46Z</time>
      </trkpt>
      <trkpt lat="43.34275" lon="-0.21957">
        <ele>315.45</ele>
        <time>2013-03-31T14:44:49Z</time>
      </trkpt>
      <trkpt lat="43.34284" lon="-0.21954">
        <ele>314.49</ele>
        <time>2013-03-31T14:44:52Z</time>
      </trkpt>
      <trkpt lat="43.34294" lon="-0.21951">
        <ele>314.97</ele>
        <time>2013-03-31T14:44:55Z</time>
      </trkpt>
      <trkpt lat="43.34303" lon="-0.21947">
        <ele>314.97</ele>
        <time>2013-03-31T14:44:58Z</time>
      </trkpt>
      <trkpt lat="43.34313" lon="-0.21951">
        <ele>314.97</ele>
        <time>2013-03-31T14:45:02Z</time>
      </trkpt>
      <trkpt lat="43.34319" lon="-0.21962">
        <ele>314.97</ele>
        <time>2013-03-31T14:45:06Z</time>
      </trkpt>
      <trkpt lat="43.34325" lon="-0.21975">
        <ele>314.97</ele>
        <time>2013-03-31T14:45:10Z</time>
      </trkpt>
      <trkpt lat="43.3433" lon="-0.21987">
        <ele>314.97</ele>
        <time>2013-03-31T14:45:14Z</time>
      </trkpt>
      <trkpt lat="43.34338" lon="-0.21998">
        <ele>314.97</ele>
        <time>2013-03-31T14:45:18Z</time>
      </trkpt>
      <trkpt lat="43.34345" lon="-0.22007">
        <ele>314.97</ele>
        <time>2013-03-31T14:45:22Z</time>
      </trkpt>
      <trkpt lat="43.34353" lon="-0.22016">
        <ele>314.97</ele>
        <time>2013-03-31T14:45:26Z</time>
      </trkpt>
      <trkpt lat="43.34362" lon="-0.22024">
        <ele>314.97</ele>
        <time>2013-03-31T14:45:30Z</time>
      </trkpt>
      <trkpt lat="43.34369" lon="-0.22033">
        <ele>314.97</ele>
        <time>2013-03-31T14:45:34Z</time>
      </trkpt>
      <trkpt lat="43.34377" lon="-0.22043">
        <ele>314.01</ele>
        <time>2013-03-31T14:45:38Z</time>
      </trkpt>
      <trkpt lat="43.34384" lon="-0.22052">
        <ele>314.01</ele>
        <time>2013-03-31T14:45:42Z</time>
      </trkpt>
      <trkpt lat="43.34392" lon="-0.22062">
        <ele>314.01</ele>
        <time>2013-03-31T14:45:46Z</time>
      </trkpt>
      <trkpt lat="43.34401" lon="-0.2207">
        <ele>314.49</ele>
        <time>2013-03-31T14:45:50Z</time>
      </trkpt>
      <trkpt lat="43.34407" lon="-0.22079">
        <ele>314.49</ele>
        <time>2013-03-31T14:45:54Z</time>
      </trkpt>
      <trkpt lat="43.34415" lon="-0.22089">
        <ele>314.01</ele>
        <time>2013-03-31T14:45:58Z</time>
      </trkpt>
      <trkpt lat="43.34423" lon="-0.22099">
        <ele>314.49</ele>
        <time>2013-03-31T14:46:02Z</time>
      </trkpt>
      <trkpt lat="43.3443" lon="-0.22109">
        <ele>314.49</ele>
        <time>2013-03-31T14:46:06Z</time>
      </trkpt>
      <trkpt lat="43.34437" lon="-0.22118">
        <ele>314.49</ele>
        <time>2013-03-31T14:46:10Z</time>
      </trkpt>
      <trkpt lat="43.34445" lon="-0.22128">
        <ele>314.49</ele>
        <time>2013-03-31T14:46:14Z</time>
      </trkpt>
      <trkpt lat="43.34453" lon="-0.22137">
        <ele>314.01</ele>
        <time>2013-03-31T14:46:18Z</time>
      </trkpt>
      <trkpt lat="43.3446" lon="-0.22146">
        <ele>313.53</ele>
        <time>2013-03-31T14:46:22Z</time>
      </trkpt>
      <trkpt lat="43.34468" lon="-0.22155">
        <ele>313.05</ele>
        <time>2013-03-31T14:46:26Z</time>
      </trkpt>
      <trkpt lat="43.34476" lon="-0.22164">
        <ele>313.53</ele>
        <time>2013-03-31T14:46:30Z</time>
      </trkpt>
      <trkpt lat="43.34484" lon="-0.22175">
        <ele>313.05</ele>
        <time>2013-03-31T14:46:35Z</time>
      </trkpt>
      <trkpt lat="43.34494" lon="-0.22185">
        <ele>312.57</ele>
        <time>2013-03-31T14:46:40Z</time>
      </trkpt>
      <trkpt lat="43.34501" lon="-0.22194">
        <ele>312.57</ele>
        <time>2013-03-31T14:46:44Z</time>
      </trkpt>
      <trkpt lat="43.34507" lon="-0.22204">
        <ele>312.57</ele>
        <time>2013-03-31T14:46:48Z</time>
      </trkpt>
      <trkpt lat="43.34516" lon="-0.22212">
        <ele>312.09</ele>
        <time>2013-03-31T14:46:52Z</time>
      </trkpt>
      <trkpt lat="43.34526" lon="-0.22219">
        <ele>312.09</ele>
        <time>2013-03-31T14:46:57Z</time>
      </trkpt>
      <trkpt lat="43.34536" lon="-0.22223">
        <ele>312.57</ele>
        <time>2013-03-31T14:47:02Z</time>
      </trkpt>
      <trkpt lat="43.34545" lon="-0.2223">
        <ele>312.09</ele>
        <time>2013-03-31T14:47:07Z</time>
      </trkpt>
      <trkpt lat="43.34555" lon="-0.22236">
        <ele>311.6</ele>
        <time>2013-03-31T14:47:11Z</time>
      </trkpt>
      <trkpt lat="43.34563" lon="-0.22243">
        <ele>311.6</ele>
        <time>2013-03-31T14:47:15Z</time>
      </trkpt>
      <trkpt lat="43.34573" lon="-0.22251">
        <ele>311.12</ele>
        <time>2013-03-31T14:47:19Z</time>
      </trkpt>
      <trkpt lat="43.34581" lon="-0.22257">
        <ele>311.12</ele>
        <time>2013-03-31T14:47:23Z</time>
      </trkpt>
      <trkpt lat="43.34591" lon="-0.22264">
        <ele>311.12</ele>
        <time>2013-03-31T14:47:28Z</time>
      </trkpt>
      <trkpt lat="43.346" lon="-0.22271">
        <ele>310.64</ele>
        <time>2013-03-31T14:47:33Z</time>
      </trkpt>
      <trkpt lat="43.34609" lon="-0.22277">
        <ele>310.64</ele>
        <time>2013-03-31T14:47:38Z</time>
      </trkpt>
      <trkpt lat="43.3462" lon="-0.22281">
        <ele>310.64</ele>
        <time>2013-03-31T14:47:43Z</time>
      </trkpt>
      <trkpt lat="43.34629" lon="-0.22285">
        <ele>310.16</ele>
        <time>2013-03-31T14:47:47Z</time>
      </trkpt>
      <trkpt lat="43.34637" lon="-0.2229">
        <ele>310.64</ele>
        <time>2013-03-31T14:47:51Z</time>
      </trkpt>
      <trkpt lat="43.34642" lon="-0.22302">
        <ele>311.12</ele>
        <time>2013-03-31T14:47:57Z</time>
      </trkpt>
      <trkpt lat="43.34636" lon="-0.22315">
        <ele>310.64</ele>
        <time>2013-03-31T14:48:02Z</time>
      </trkpt>
      <trkpt lat="43.3463" lon="-0.22328">
        <ele>311.12</ele>
        <time>2013-03-31T14:48:07Z</time>
      </trkpt>
      <trkpt lat="43.34624" lon="-0.22341">
        <ele>311.12</ele>
        <time>2013-03-31T14:48:12Z</time>
      </trkpt>
      <trkpt lat="43.34618" lon="-0.22351">
        <ele>311.12</ele>
        <time>2013-03-31T14:48:16Z</time>
      </trkpt>
      <trkpt lat="43.34612" lon="-0.22362">
        <ele>310.64</ele>
        <time>2013-03-31T14:48:20Z</time>
      </trkpt>
      <trkpt lat="43.34607" lon="-0.22372">
        <ele>310.64</ele>
        <time>2013-03-31T14:48:24Z</time>
      </trkpt>
      <trkpt lat="43.34601" lon="-0.22383">
        <ele>310.64</ele>
        <time>2013-03-31T14:48:28Z</time>
      </trkpt>
      <trkpt lat="43.34596" lon="-0.22395">
        <ele>310.16</ele>
        <time>2013-03-31T14:48:32Z</time>
      </trkpt>
      <trkpt lat="43.34592" lon="-0.22409">
        <ele>310.16</ele>
        <time>2013-03-31T14:48:36Z</time>
      </trkpt>
      <trkpt lat="43.34587" lon="-0.22422">
        <ele>310.16</ele>
        <time>2013-03-31T14:48:41Z</time>
      </trkpt>
      <trkpt lat="43.34584" lon="-0.22434">
        <ele>309.68</ele>
        <time>2013-03-31T14:48:45Z</time>
      </trkpt>
      <trkpt lat="43.34581" lon="-0.22447">
        <ele>309.2</ele>
        <time>2013-03-31T14:48:49Z</time>
      </trkpt>
      <trkpt lat="43.34578" lon="-0.2246">
        <ele>309.68</ele>
        <time>2013-03-31T14:48:53Z</time>
      </trkpt>
      <trkpt lat="43.34574" lon="-0.22474">
        <ele>308.72</ele>
        <time>2013-03-31T14:48:58Z</time>
      </trkpt>
      <trkpt lat="43.3457" lon="-0.2249">
        <ele>308.24</ele>
        <time>2013-03-31T14:49:03Z</time>
      </trkpt>
      <trkpt lat="43.34566" lon="-0.22504">
        <ele>307.76</ele>
        <time>2013-03-31T14:49:07Z</time>
      </trkpt>
      <trkpt lat="43.34563" lon="-0.22516">
        <ele>307.28</ele>
        <time>2013-03-31T14:49:11Z</time>
      </trkpt>
      <trkpt lat="43.34558" lon="-0.22531">
        <ele>306.8</ele>
        <time>2013-03-31T14:49:15Z</time>
      </trkpt>
      <trkpt lat="43.34554" lon="-0.22545">
        <ele>306.8</ele>
        <time>2013-03-31T14:49:19Z</time>
      </trkpt>
      <trkpt lat="43.34551" lon="-0.22558">
        <ele>306.32</ele>
        <time>2013-03-31T14:49:23Z</time>
      </trkpt>
      <trkpt lat="43.34547" lon="-0.22574">
        <ele>306.32</ele>
        <time>2013-03-31T14:49:29Z</time>
      </trkpt>
      <trkpt lat="43.34545" lon="-0.22588">
        <ele>305.84</ele>
        <time>2013-03-31T14:49:35Z</time>
      </trkpt>
      <trkpt lat="43.34542" lon="-0.22601">
        <ele>305.84</ele>
        <time>2013-03-31T14:49:41Z</time>
      </trkpt>
      <trkpt lat="43.34539" lon="-0.22616">
        <ele>305.36</ele>
        <time>2013-03-31T14:49:47Z</time>
      </trkpt>
      <trkpt lat="43.34538" lon="-0.22631">
        <ele>305.36</ele>
        <time>2013-03-31T14:49:53Z</time>
      </trkpt>
      <trkpt lat="43.34536" lon="-0.22645">
        <ele>305.36</ele>
        <time>2013-03-31T14:49:58Z</time>
      </trkpt>
      <trkpt lat="43.34537" lon="-0.22659">
        <ele>305.36</ele>
        <time>2013-03-31T14:50:04Z</time>
      </trkpt>
      <trkpt lat="43.34543" lon="-0.22671">
        <ele>306.32</ele>
        <time>2013-03-31T14:50:28Z</time>
      </trkpt>
      <trkpt lat="43.34551" lon="-0.22688">
        <ele>305.84</ele>
        <time>2013-03-31T14:50:41Z</time>
      </trkpt>
      <trkpt lat="43.34558" lon="-0.22699">
        <ele>306.32</ele>
        <time>2013-03-31T14:50:54Z</time>
      </trkpt>
      <trkpt lat="43.34569" lon="-0.22707">
        <ele>306.8</ele>
        <time>2013-03-31T14:51:06Z</time>
      </trkpt>
      <trkpt lat="43.34578" lon="-0.2272">
        <ele>307.28</ele>
        <time>2013-03-31T14:51:17Z</time>
      </trkpt>
      <trkpt lat="43.34574" lon="-0.22736">
        <ele>307.28</ele>
        <time>2013-03-31T14:51:30Z</time>
      </trkpt>
      <trkpt lat="43.3457" lon="-0.22749">
        <ele>307.76</ele>
        <time>2013-03-31T14:51:35Z</time>
      </trkpt>
      <trkpt lat="43.34565" lon="-0.22762">
        <ele>308.24</ele>
        <time>2013-03-31T14:51:42Z</time>
      </trkpt>
      <trkpt lat="43.34561" lon="-0.22775">
        <ele>308.24</ele>
        <time>2013-03-31T14:51:48Z</time>
      </trkpt>
      <trkpt lat="43.34558" lon="-0.22787">
        <ele>308.72</ele>
        <time>2013-03-31T14:51:53Z</time>
      </trkpt>
      <trkpt lat="43.34553" lon="-0.22799">
        <ele>308.72</ele>
        <time>2013-03-31T14:51:58Z</time>
      </trkpt>
      <trkpt lat="43.34549" lon="-0.22812">
        <ele>309.2</ele>
        <time>2013-03-31T14:52:03Z</time>
      </trkpt>
      <trkpt lat="43.34544" lon="-0.22824">
        <ele>309.68</ele>
        <time>2013-03-31T14:52:08Z</time>
      </trkpt>
      <trkpt lat="43.34539" lon="-0.22836">
        <ele>309.2</ele>
        <time>2013-03-31T14:52:13Z</time>
      </trkpt>
      <trkpt lat="43.34535" lon="-0.22851">
        <ele>308.72</ele>
        <time>2013-03-31T14:52:18Z</time>
      </trkpt>
      <trkpt lat="43.34531" lon="-0.22862">
        <ele>308.72</ele>
        <time>2013-03-31T14:52:22Z</time>
      </trkpt>
      <trkpt lat="43.34527" lon="-0.22874">
        <ele>308.72</ele>
        <time>2013-03-31T14:52:26Z</time>
      </trkpt>
      <trkpt lat="43.34523" lon="-0.22886">
        <ele>308.72</ele>
        <time>2013-03-31T14:52:30Z</time>
      </trkpt>
      <trkpt lat="43.34519" lon="-0.22898">
        <ele>308.72</ele>
        <time>2013-03-31T14:52:34Z</time>
      </trkpt>
      <trkpt lat="43.34515" lon="-0.2291">
        <ele>309.2</ele>
        <time>2013-03-31T14:52:38Z</time>
      </trkpt>
      <trkpt lat="43.34511" lon="-0.22923">
        <ele>309.2</ele>
        <time>2013-03-31T14:52:42Z</time>
      </trkpt>
      <trkpt lat="43.34507" lon="-0.22935">
        <ele>309.2</ele>
        <time>2013-03-31T14:52:47Z</time>
      </trkpt>
      <trkpt lat="43.34502" lon="-0.22933">
        <ele>309.68</ele>
        <time>2013-03-31T14:53:38Z</time>
      </trkpt>
      <trkpt lat="43.34491" lon="-0.22926">
        <ele>309.68</ele>
        <time>2013-03-31T14:53:44Z</time>
      </trkpt>
      <trkpt lat="43.34483" lon="-0.2292">
        <ele>309.68</ele>
        <time>2013-03-31T14:53:48Z</time>
      </trkpt>
      <trkpt lat="43.34474" lon="-0.22914">
        <ele>310.16</ele>
        <time>2013-03-31T14:53:52Z</time>
      </trkpt>
      <trkpt lat="43.34465" lon="-0.22907">
        <ele>310.16</ele>
        <time>2013-03-31T14:53:56Z</time>
      </trkpt>
      <trkpt lat="43.34456" lon="-0.22902">
        <ele>310.64</ele>
        <time>2013-03-31T14:54:00Z</time>
      </trkpt>
      <trkpt lat="43.34446" lon="-0.22895">
        <ele>310.64</ele>
        <time>2013-03-31T14:54:04Z</time>
      </trkpt>
      <trkpt lat="43.34438" lon="-0.22889">
        <ele>311.12</ele>
        <time>2013-03-31T14:54:08Z</time>
      </trkpt>
      <trkpt lat="43.34428" lon="-0.22882">
        <ele>311.12</ele>
        <time>2013-03-31T14:54:12Z</time>
      </trkpt>
      <trkpt lat="43.34418" lon="-0.22876">
        <ele>310.64</ele>
        <time>2013-03-31T14:54:16Z</time>
      </trkpt>
      <trkpt lat="43.34408" lon="-0.22869">
        <ele>311.6</ele>
        <time>2013-03-31T14:54:20Z</time>
      </trkpt>
      <trkpt lat="43.34399" lon="-0.22864">
        <ele>312.09</ele>
        <time>2013-03-31T14:54:24Z</time>
      </trkpt>
      <trkpt lat="43.3439" lon="-0.22857">
        <ele>312.09</ele>
        <time>2013-03-31T14:54:28Z</time>
      </trkpt>
      <trkpt lat="43.3438" lon="-0.2285">
        <ele>312.09</ele>
        <time>2013-03-31T14:54:32Z</time>
      </trkpt>
      <trkpt lat="43.3437" lon="-0.22843">
        <ele>312.09</ele>
        <time>2013-03-31T14:54:36Z</time>
      </trkpt>
      <trkpt lat="43.34361" lon="-0.22834">
        <ele>312.57</ele>
        <time>2013-03-31T14:54:40Z</time>
      </trkpt>
      <trkpt lat="43.34351" lon="-0.22826">
        <ele>312.57</ele>
        <time>2013-03-31T14:54:44Z</time>
      </trkpt>
      <trkpt lat="43.34341" lon="-0.22818">
        <ele>312.57</ele>
        <time>2013-03-31T14:54:48Z</time>
      </trkpt>
      <trkpt lat="43.34332" lon="-0.22809">
        <ele>312.57</ele>
        <time>2013-03-31T14:54:52Z</time>
      </trkpt>
      <trkpt lat="43.34323" lon="-0.22801">
        <ele>312.57</ele>
        <time>2013-03-31T14:54:56Z</time>
      </trkpt>
      <trkpt lat="43.34314" lon="-0.22792">
        <ele>313.05</ele>
        <time>2013-03-31T14:55:00Z</time>
      </trkpt>
      <trkpt lat="43.34304" lon="-0.22784">
        <ele>313.05</ele>
        <time>2013-03-31T14:55:04Z</time>
      </trkpt>
      <trkpt lat="43.34295" lon="-0.22777">
        <ele>313.05</ele>
        <time>2013-03-31T14:55:08Z</time>
      </trkpt>
      <trkpt lat="43.34286" lon="-0.22768">
        <ele>313.05</ele>
        <time>2013-03-31T14:55:12Z</time>
      </trkpt>
      <trkpt lat="43.34277" lon="-0.22759">
        <ele>313.53</ele>
        <time>2013-03-31T14:55:16Z</time>
      </trkpt>
      <trkpt lat="43.34267" lon="-0.22751">
        <ele>313.53</ele>
        <time>2013-03-31T14:55:20Z</time>
      </trkpt>
      <trkpt lat="43.34258" lon="-0.22742">
        <ele>313.53</ele>
        <time>2013-03-31T14:55:24Z</time>
      </trkpt>
      <trkpt lat="43.34249" lon="-0.22733">
        <ele>313.53</ele>
        <time>2013-03-31T14:55:28Z</time>
      </trkpt>
      <trkpt lat="43.3424" lon="-0.22724">
        <ele>313.53</ele>
        <time>2013-03-31T14:55:32Z</time>
      </trkpt>
      <trkpt lat="43.34231" lon="-0.22714">
        <ele>313.53</ele>
        <time>2013-03-31T14:55:36Z</time>
      </trkpt>
      <trkpt lat="43.34221" lon="-0.22706">
        <ele>313.05</ele>
        <time>2013-03-31T14:55:40Z</time>
      </trkpt>
      <trkpt lat="43.34211" lon="-0.22698">
        <ele>313.53</ele>
        <time>2013-03-31T14:55:44Z</time>
      </trkpt>
      <trkpt lat="43.342" lon="-0.22689">
        <ele>313.05</ele>
        <time>2013-03-31T14:55:48Z</time>
      </trkpt>
      <trkpt lat="43.3419" lon="-0.22681">
        <ele>313.53</ele>
        <time>2013-03-31T14:55:52Z</time>
      </trkpt>
      <trkpt lat="43.3418" lon="-0.22673">
        <ele>313.05</ele>
        <time>2013-03-31T14:55:56Z</time>
      </trkpt>
      <trkpt lat="43.3417" lon="-0.22664">
        <ele>314.01</ele>
        <time>2013-03-31T14:56:00Z</time>
      </trkpt>
      <trkpt lat="43.34161" lon="-0.22655">
        <ele>314.01</ele>
        <time>2013-03-31T14:56:04Z</time>
      </trkpt>
      <trkpt lat="43.34152" lon="-0.22648">
        <ele>314.01</ele>
        <time>2013-03-31T14:56:08Z</time>
      </trkpt>
      <trkpt lat="43.34142" lon="-0.22639">
        <ele>314.01</ele>
        <time>2013-03-31T14:56:12Z</time>
      </trkpt>
      <trkpt lat="43.34134" lon="-0.22631">
        <ele>314.49</ele>
        <time>2013-03-31T14:56:16Z</time>
      </trkpt>
      <trkpt lat="43.34125" lon="-0.22623">
        <ele>314.49</ele>
        <time>2013-03-31T14:56:20Z</time>
      </trkpt>
      <trkpt lat="43.34118" lon="-0.22614">
        <ele>314.97</ele>
        <time>2013-03-31T14:56:25Z</time>
      </trkpt>
      <trkpt lat="43.3411" lon="-0.22607">
        <ele>314.97</ele>
        <time>2013-03-31T14:56:31Z</time>
      </trkpt>
      <trkpt lat="43.34104" lon="-0.22595">
        <ele>314.97</ele>
        <time>2013-03-31T14:56:36Z</time>
      </trkpt>
      <trkpt lat="43.34097" lon="-0.22586">
        <ele>314.97</ele>
        <time>2013-03-31T14:56:40Z</time>
      </trkpt>
      <trkpt lat="43.34087" lon="-0.22581">
        <ele>315.45</ele>
        <time>2013-03-31T14:56:44Z</time>
      </trkpt>
      <trkpt lat="43.34076" lon="-0.22577">
        <ele>315.93</ele>
        <time>2013-03-31T14:56:48Z</time>
      </trkpt>
      <trkpt lat="43.34065" lon="-0.22574">
        <ele>315.93</ele>
        <time>2013-03-31T14:56:52Z</time>
      </trkpt>
      <trkpt lat="43.34055" lon="-0.22571">
        <ele>315.45</ele>
        <time>2013-03-31T14:56:56Z</time>
      </trkpt>
      <trkpt lat="43.34043" lon="-0.22567">
        <ele>315.45</ele>
        <time>2013-03-31T14:57:00Z</time>
      </trkpt>
      <trkpt lat="43.34032" lon="-0.22565">
        <ele>315.93</ele>
        <time>2013-03-31T14:57:04Z</time>
      </trkpt>
      <trkpt lat="43.34023" lon="-0.22562">
        <ele>315.93</ele>
        <time>2013-03-31T14:57:07Z</time>
      </trkpt>
      <trkpt lat="43.34014" lon="-0.22561">
        <ele>315.93</ele>
        <time>2013-03-31T14:57:10Z</time>
      </trkpt>
      <trkpt lat="43.34005" lon="-0.22559">
        <ele>316.41</ele>
        <time>2013-03-31T14:57:13Z</time>
      </trkpt>
      <trkpt lat="43.33996" lon="-0.22557">
        <ele>316.89</ele>
        <time>2013-03-31T14:57:16Z</time>
      </trkpt>
      <trkpt lat="43.33987" lon="-0.22555">
        <ele>316.41</ele>
        <time>2013-03-31T14:57:19Z</time>
      </trkpt>
      <trkpt lat="43.33978" lon="-0.22552">
        <ele>315.93</ele>
        <time>2013-03-31T14:57:22Z</time>
      </trkpt>
      <trkpt lat="43.33969" lon="-0.22551">
        <ele>316.41</ele>
        <time>2013-03-31T14:57:25Z</time>
      </trkpt>
      <trkpt lat="43.33957" lon="-0.22548">
        <ele>316.89</ele>
        <time>2013-03-31T14:57:29Z</time>
      </trkpt>
      <trkpt lat="43.33945" lon="-0.22545">
        <ele>316.41</ele>
        <time>2013-03-31T14:57:33Z</time>
      </trkpt>
      <trkpt lat="43.33937" lon="-0.22543">
        <ele>316.89</ele>
        <time>2013-03-31T14:57:36Z</time>
      </trkpt>
      <trkpt lat="43.33924" lon="-0.22541">
        <ele>316.89</ele>
        <time>2013-03-31T14:57:40Z</time>
      </trkpt>
      <trkpt lat="43.33916" lon="-0.22539">
        <ele>317.37</ele>
        <time>2013-03-31T14:57:43Z</time>
      </trkpt>
      <trkpt lat="43.33907" lon="-0.22536">
        <ele>317.37</ele>
        <time>2013-03-31T14:57:46Z</time>
      </trkpt>
      <trkpt lat="43.33898" lon="-0.22535">
        <ele>317.85</ele>
        <time>2013-03-31T14:57:49Z</time>
      </trkpt>
      <trkpt lat="43.33889" lon="-0.22532">
        <ele>317.37</ele>
        <time>2013-03-31T14:57:52Z</time>
      </trkpt>
      <trkpt lat="43.33879" lon="-0.2253">
        <ele>317.37</ele>
        <time>2013-03-31T14:57:55Z</time>
      </trkpt>
      <trkpt lat="43.3387" lon="-0.22528">
        <ele>317.37</ele>
        <time>2013-03-31T14:57:58Z</time>
      </trkpt>
      <trkpt lat="43.33861" lon="-0.22526">
        <ele>317.37</ele>
        <time>2013-03-31T14:58:01Z</time>
      </trkpt>
      <trkpt lat="43.33852" lon="-0.22524">
        <ele>316.89</ele>
        <time>2013-03-31T14:58:04Z</time>
      </trkpt>
      <trkpt lat="43.33842" lon="-0.22522">
        <ele>316.89</ele>
        <time>2013-03-31T14:58:07Z</time>
      </trkpt>
      <trkpt lat="43.33833" lon="-0.2252">
        <ele>317.37</ele>
        <time>2013-03-31T14:58:10Z</time>
      </trkpt>
      <trkpt lat="43.33824" lon="-0.22519">
        <ele>316.89</ele>
        <time>2013-03-31T14:58:13Z</time>
      </trkpt>
      <trkpt lat="43.33815" lon="-0.22517">
        <ele>316.89</ele>
        <time>2013-03-31T14:58:16Z</time>
      </trkpt>
      <trkpt lat="43.33806" lon="-0.22515">
        <ele>316.89</ele>
        <time>2013-03-31T14:58:19Z</time>
      </trkpt>
      <trkpt lat="43.33797" lon="-0.22513">
        <ele>316.89</ele>
        <time>2013-03-31T14:58:22Z</time>
      </trkpt>
      <trkpt lat="43.33787" lon="-0.22511">
        <ele>316.89</ele>
        <time>2013-03-31T14:58:25Z</time>
      </trkpt>
      <trkpt lat="43.33778" lon="-0.22509">
        <ele>316.89</ele>
        <time>2013-03-31T14:58:28Z</time>
      </trkpt>
      <trkpt lat="43.33769" lon="-0.22507">
        <ele>316.89</ele>
        <time>2013-03-31T14:58:31Z</time>
      </trkpt>
      <trkpt lat="43.3376" lon="-0.22505">
        <ele>316.89</ele>
        <time>2013-03-31T14:58:34Z</time>
      </trkpt>
      <trkpt lat="43.3375" lon="-0.22503">
        <ele>317.85</ele>
        <time>2013-03-31T14:58:37Z</time>
      </trkpt>
      <trkpt lat="43.33742" lon="-0.22501">
        <ele>317.37</ele>
        <time>2013-03-31T14:58:40Z</time>
      </trkpt>
      <trkpt lat="43.33733" lon="-0.22499">
        <ele>317.37</ele>
        <time>2013-03-31T14:58:43Z</time>
      </trkpt>
      <trkpt lat="43.33722" lon="-0.22496">
        <ele>317.37</ele>
        <time>2013-03-31T14:58:47Z</time>
      </trkpt>
      <trkpt lat="43.33713" lon="-0.22494">
        <ele>318.33</ele>
        <time>2013-03-31T14:58:50Z</time>
      </trkpt>
      <trkpt lat="43.33702" lon="-0.22491">
        <ele>318.81</ele>
        <time>2013-03-31T14:58:54Z</time>
      </trkpt>
      <trkpt lat="43.3369" lon="-0.22489">
        <ele>318.33</ele>
        <time>2013-03-31T14:58:58Z</time>
      </trkpt>
      <trkpt lat="43.33679" lon="-0.22487">
        <ele>318.81</ele>
        <time>2013-03-31T14:59:02Z</time>
      </trkpt>
      <trkpt lat="43.33667" lon="-0.22484">
        <ele>318.81</ele>
        <time>2013-03-31T14:59:06Z</time>
      </trkpt>
      <trkpt lat="43.33655" lon="-0.22482">
        <ele>318.81</ele>
        <time>2013-03-31T14:59:10Z</time>
      </trkpt>
      <trkpt lat="43.33647" lon="-0.2248">
        <ele>318.81</ele>
        <time>2013-03-31T14:59:13Z</time>
      </trkpt>
      <trkpt lat="43.33638" lon="-0.22477">
        <ele>318.81</ele>
        <time>2013-03-31T14:59:16Z</time>
      </trkpt>
      <trkpt lat="43.33629" lon="-0.22475">
        <ele>318.81</ele>
        <time>2013-03-31T14:59:19Z</time>
      </trkpt>
      <trkpt lat="43.3362" lon="-0.22473">
        <ele>318.81</ele>
        <time>2013-03-31T14:59:22Z</time>
      </trkpt>
      <trkpt lat="43.33608" lon="-0.2247">
        <ele>318.81</ele>
        <time>2013-03-31T14:59:26Z</time>
      </trkpt>
      <trkpt lat="43.33598" lon="-0.22469">
        <ele>319.3</ele>
        <time>2013-03-31T14:59:30Z</time>
      </trkpt>
      <trkpt lat="43.33586" lon="-0.22466">
        <ele>319.3</ele>
        <time>2013-03-31T14:59:34Z</time>
      </trkpt>
      <trkpt lat="43.33575" lon="-0.22463">
        <ele>319.3</ele>
        <time>2013-03-31T14:59:38Z</time>
      </trkpt>
      <trkpt lat="43.33564" lon="-0.22461">
        <ele>318.81</ele>
        <time>2013-03-31T14:59:42Z</time>
      </trkpt>
      <trkpt lat="43.33555" lon="-0.22469">
        <ele>319.3</ele>
        <time>2013-03-31T14:59:46Z</time>
      </trkpt>
      <trkpt lat="43.33552" lon="-0.22484">
        <ele>319.3</ele>
        <time>2013-03-31T14:59:50Z</time>
      </trkpt>
      <trkpt lat="43.3355" lon="-0.22497">
        <ele>319.3</ele>
        <time>2013-03-31T14:59:53Z</time>
      </trkpt>
      <trkpt lat="43.33548" lon="-0.22509">
        <ele>319.3</ele>
        <time>2013-03-31T14:59:56Z</time>
      </trkpt>
      <trkpt lat="43.33546" lon="-0.22525">
        <ele>319.3</ele>
        <time>2013-03-31T15:00:00Z</time>
      </trkpt>
      <trkpt lat="43.33543" lon="-0.22538">
        <ele>318.81</ele>
        <time>2013-03-31T15:00:03Z</time>
      </trkpt>
      <trkpt lat="43.33541" lon="-0.22552">
        <ele>318.33</ele>
        <time>2013-03-31T15:00:06Z</time>
      </trkpt>
      <trkpt lat="43.33538" lon="-0.22565">
        <ele>318.33</ele>
        <time>2013-03-31T15:00:09Z</time>
      </trkpt>
      <trkpt lat="43.33536" lon="-0.22579">
        <ele>318.33</ele>
        <time>2013-03-31T15:00:12Z</time>
      </trkpt>
      <trkpt lat="43.33533" lon="-0.22593">
        <ele>317.85</ele>
        <time>2013-03-31T15:00:15Z</time>
      </trkpt>
      <trkpt lat="43.33531" lon="-0.22609">
        <ele>316.89</ele>
        <time>2013-03-31T15:00:18Z</time>
      </trkpt>
      <trkpt lat="43.33528" lon="-0.22626">
        <ele>317.37</ele>
        <time>2013-03-31T15:00:21Z</time>
      </trkpt>
      <trkpt lat="43.33526" lon="-0.22643">
        <ele>316.41</ele>
        <time>2013-03-31T15:00:24Z</time>
      </trkpt>
      <trkpt lat="43.33523" lon="-0.2266">
        <ele>316.89</ele>
        <time>2013-03-31T15:00:27Z</time>
      </trkpt>
      <trkpt lat="43.3352" lon="-0.22678">
        <ele>316.41</ele>
        <time>2013-03-31T15:00:30Z</time>
      </trkpt>
      <trkpt lat="43.33517" lon="-0.22696">
        <ele>315.93</ele>
        <time>2013-03-31T15:00:33Z</time>
      </trkpt>
      <trkpt lat="43.33514" lon="-0.22714">
        <ele>315.93</ele>
        <time>2013-03-31T15:00:36Z</time>
      </trkpt>
      <trkpt lat="43.3351" lon="-0.22732">
        <ele>315.45</ele>
        <time>2013-03-31T15:00:39Z</time>
      </trkpt>
      <trkpt lat="43.33507" lon="-0.22749">
        <ele>315.45</ele>
        <time>2013-03-31T15:00:42Z</time>
      </trkpt>
      <trkpt lat="43.33503" lon="-0.22766">
        <ele>314.97</ele>
        <time>2013-03-31T15:00:45Z</time>
      </trkpt>
      <trkpt lat="43.33497" lon="-0.22781">
        <ele>314.97</ele>
        <time>2013-03-31T15:00:48Z</time>
      </trkpt>
      <trkpt lat="43.3349" lon="-0.22794">
        <ele>315.45</ele>
        <time>2013-03-31T15:00:51Z</time>
      </trkpt>
      <trkpt lat="43.33483" lon="-0.22805">
        <ele>315.45</ele>
        <time>2013-03-31T15:00:54Z</time>
      </trkpt>
      <trkpt lat="43.33477" lon="-0.22815">
        <ele>315.45</ele>
        <time>2013-03-31T15:00:57Z</time>
      </trkpt>
      <trkpt lat="43.33471" lon="-0.22825">
        <ele>315.93</ele>
        <time>2013-03-31T15:01:00Z</time>
      </trkpt>
      <trkpt lat="43.33464" lon="-0.22837">
        <ele>317.37</ele>
        <time>2013-03-31T15:01:04Z</time>
      </trkpt>
      <trkpt lat="43.33457" lon="-0.22848">
        <ele>316.89</ele>
        <time>2013-03-31T15:01:08Z</time>
      </trkpt>
      <trkpt lat="43.33448" lon="-0.22861">
        <ele>317.37</ele>
        <time>2013-03-31T15:01:12Z</time>
      </trkpt>
      <trkpt lat="43.33443" lon="-0.2287">
        <ele>316.89</ele>
        <time>2013-03-31T15:01:15Z</time>
      </trkpt>
      <trkpt lat="43.33435" lon="-0.22883">
        <ele>317.37</ele>
        <time>2013-03-31T15:01:19Z</time>
      </trkpt>
      <trkpt lat="43.33429" lon="-0.22893">
        <ele>317.85</ele>
        <time>2013-03-31T15:01:22Z</time>
      </trkpt>
      <trkpt lat="43.33424" lon="-0.22904">
        <ele>317.85</ele>
        <time>2013-03-31T15:01:25Z</time>
      </trkpt>
      <trkpt lat="43.33418" lon="-0.22913">
        <ele>317.37</ele>
        <time>2013-03-31T15:01:28Z</time>
      </trkpt>
      <trkpt lat="43.33412" lon="-0.22923">
        <ele>317.85</ele>
        <time>2013-03-31T15:01:31Z</time>
      </trkpt>
      <trkpt lat="43.33404" lon="-0.22936">
        <ele>318.33</ele>
        <time>2013-03-31T15:01:35Z</time>
      </trkpt>
      <trkpt lat="43.33397" lon="-0.22949">
        <ele>318.33</ele>
        <time>2013-03-31T15:01:39Z</time>
      </trkpt>
      <trkpt lat="43.33389" lon="-0.22961">
        <ele>318.81</ele>
        <time>2013-03-31T15:01:43Z</time>
      </trkpt>
      <trkpt lat="43.33383" lon="-0.22973">
        <ele>319.3</ele>
        <time>2013-03-31T15:01:47Z</time>
      </trkpt>
      <trkpt lat="43.33376" lon="-0.22985">
        <ele>318.81</ele>
        <time>2013-03-31T15:01:51Z</time>
      </trkpt>
      <trkpt lat="43.33369" lon="-0.22997">
        <ele>319.3</ele>
        <time>2013-03-31T15:01:55Z</time>
      </trkpt>
      <trkpt lat="43.33363" lon="-0.23009">
        <ele>319.3</ele>
        <time>2013-03-31T15:01:59Z</time>
      </trkpt>
      <trkpt lat="43.33358" lon="-0.23021">
        <ele>319.3</ele>
        <time>2013-03-31T15:02:03Z</time>
      </trkpt>
      <trkpt lat="43.33352" lon="-0.23033">
        <ele>318.81</ele>
        <time>2013-03-31T15:02:07Z</time>
      </trkpt>
      <trkpt lat="43.33345" lon="-0.23045">
        <ele>319.3</ele>
        <time>2013-03-31T15:02:11Z</time>
      </trkpt>
      <trkpt lat="43.33337" lon="-0.23054">
        <ele>319.78</ele>
        <time>2013-03-31T15:02:15Z</time>
      </trkpt>
      <trkpt lat="43.33328" lon="-0.23061">
        <ele>319.78</ele>
        <time>2013-03-31T15:02:19Z</time>
      </trkpt>
      <trkpt lat="43.3332" lon="-0.23072">
        <ele>319.78</ele>
        <time>2013-03-31T15:02:23Z</time>
      </trkpt>
      <trkpt lat="43.33313" lon="-0.23082">
        <ele>319.3</ele>
        <time>2013-03-31T15:02:27Z</time>
      </trkpt>
      <trkpt lat="43.33307" lon="-0.23091">
        <ele>318.81</ele>
        <time>2013-03-31T15:02:31Z</time>
      </trkpt>
      <trkpt lat="43.333" lon="-0.23103">
        <ele>318.33</ele>
        <time>2013-03-31T15:02:35Z</time>
      </trkpt>
      <trkpt lat="43.33292" lon="-0.23115">
        <ele>318.33</ele>
        <time>2013-03-31T15:02:38Z</time>
      </trkpt>
      <trkpt lat="43.33284" lon="-0.23127">
        <ele>317.85</ele>
        <time>2013-03-31T15:02:41Z</time>
      </trkpt>
      <trkpt lat="43.33276" lon="-0.23137">
        <ele>317.37</ele>
        <time>2013-03-31T15:02:44Z</time>
      </trkpt>
      <trkpt lat="43.33268" lon="-0.23149">
        <ele>317.37</ele>
        <time>2013-03-31T15:02:47Z</time>
      </trkpt>
      <trkpt lat="43.33259" lon="-0.23161">
        <ele>316.89</ele>
        <time>2013-03-31T15:02:50Z</time>
      </trkpt>
      <trkpt lat="43.33248" lon="-0.23175">
        <ele>316.41</ele>
        <time>2013-03-31T15:02:53Z</time>
      </trkpt>
      <trkpt lat="43.33239" lon="-0.2319">
        <ele>316.89</ele>
        <time>2013-03-31T15:02:56Z</time>
      </trkpt>
      <trkpt lat="43.3323" lon="-0.23202">
        <ele>316.41</ele>
        <time>2013-03-31T15:02:59Z</time>
      </trkpt>
      <trkpt lat="43.33221" lon="-0.23214">
        <ele>316.89</ele>
        <time>2013-03-31T15:03:02Z</time>
      </trkpt>
      <trkpt lat="43.33213" lon="-0.23226">
        <ele>315.93</ele>
        <time>2013-03-31T15:03:05Z</time>
      </trkpt>
      <trkpt lat="43.33207" lon="-0.23241">
        <ele>315.45</ele>
        <time>2013-03-31T15:03:08Z</time>
      </trkpt>
      <trkpt lat="43.33201" lon="-0.23251">
        <ele>314.49</ele>
        <time>2013-03-31T15:03:10Z</time>
      </trkpt>
      <trkpt lat="43.33193" lon="-0.23263">
        <ele>313.05</ele>
        <time>2013-03-31T15:03:12Z</time>
      </trkpt>
      <trkpt lat="43.33185" lon="-0.23278">
        <ele>311.6</ele>
        <time>2013-03-31T15:03:14Z</time>
      </trkpt>
      <trkpt lat="43.33176" lon="-0.23293">
        <ele>309.68</ele>
        <time>2013-03-31T15:03:16Z</time>
      </trkpt>
      <trkpt lat="43.33168" lon="-0.23309">
        <ele>309.2</ele>
        <time>2013-03-31T15:03:18Z</time>
      </trkpt>
      <trkpt lat="43.3316" lon="-0.23324">
        <ele>309.68</ele>
        <time>2013-03-31T15:03:20Z</time>
      </trkpt>
      <trkpt lat="43.33152" lon="-0.23339">
        <ele>308.72</ele>
        <time>2013-03-31T15:03:22Z</time>
      </trkpt>
      <trkpt lat="43.33144" lon="-0.23352">
        <ele>308.72</ele>
        <time>2013-03-31T15:03:24Z</time>
      </trkpt>
      <trkpt lat="43.33136" lon="-0.23366">
        <ele>307.76</ele>
        <time>2013-03-31T15:03:26Z</time>
      </trkpt>
      <trkpt lat="43.3313" lon="-0.23378">
        <ele>307.76</ele>
        <time>2013-03-31T15:03:28Z</time>
      </trkpt>
      <trkpt lat="43.33121" lon="-0.23392">
        <ele>307.76</ele>
        <time>2013-03-31T15:03:31Z</time>
      </trkpt>
      <trkpt lat="43.3311" lon="-0.234">
        <ele>306.32</ele>
        <time>2013-03-31T15:03:34Z</time>
      </trkpt>
      <trkpt lat="43.33099" lon="-0.23406">
        <ele>305.36</ele>
        <time>2013-03-31T15:03:37Z</time>
      </trkpt>
      <trkpt lat="43.33088" lon="-0.23412">
        <ele>303.91</ele>
        <time>2013-03-31T15:03:40Z</time>
      </trkpt>
      <trkpt lat="43.33077" lon="-0.23418">
        <ele>302.95</ele>
        <time>2013-03-31T15:03:43Z</time>
      </trkpt>
      <trkpt lat="43.33068" lon="-0.23424">
        <ele>301.99</ele>
        <time>2013-03-31T15:03:46Z</time>
      </trkpt>
      <trkpt lat="43.33058" lon="-0.23428">
        <ele>300.55</ele>
        <time>2013-03-31T15:03:49Z</time>
      </trkpt>
      <trkpt lat="43.33047" lon="-0.23433">
        <ele>300.07</ele>
        <time>2013-03-31T15:03:53Z</time>
      </trkpt>
      <trkpt lat="43.33036" lon="-0.23436">
        <ele>299.11</ele>
        <time>2013-03-31T15:03:58Z</time>
      </trkpt>
      <trkpt lat="43.33032" lon="-0.23424">
        <ele>298.63</ele>
        <time>2013-03-31T15:04:03Z</time>
      </trkpt>
      <trkpt lat="43.33031" lon="-0.23407">
        <ele>299.11</ele>
        <time>2013-03-31T15:04:07Z</time>
      </trkpt>
      <trkpt lat="43.33029" lon="-0.23391">
        <ele>300.07</ele>
        <time>2013-03-31T15:04:11Z</time>
      </trkpt>
      <trkpt lat="43.33023" lon="-0.23384">
        <ele>301.51</ele>
        <time>2013-03-31T15:04:17Z</time>
      </trkpt>
      <trkpt lat="43.33014" lon="-0.23389">
        <ele>300.07</ele>
        <time>2013-03-31T15:04:21Z</time>
      </trkpt>
      <trkpt lat="43.33002" lon="-0.23385">
        <ele>299.59</ele>
        <time>2013-03-31T15:04:28Z</time>
      </trkpt>
      <trkpt lat="43.32989" lon="-0.23381">
        <ele>299.59</ele>
        <time>2013-03-31T15:04:35Z</time>
      </trkpt>
      <trkpt lat="43.32978" lon="-0.23372">
        <ele>299.59</ele>
        <time>2013-03-31T15:04:40Z</time>
      </trkpt>
      <trkpt lat="43.32966" lon="-0.2336">
        <ele>299.59</ele>
        <time>2013-03-31T15:04:45Z</time>
      </trkpt>
      <trkpt lat="43.32954" lon="-0.23344">
        <ele>300.55</ele>
        <time>2013-03-31T15:04:50Z</time>
      </trkpt>
      <trkpt lat="43.32941" lon="-0.23334">
        <ele>301.03</ele>
        <time>2013-03-31T15:04:55Z</time>
      </trkpt>
      <trkpt lat="43.32931" lon="-0.23327">
        <ele>301.03</ele>
        <time>2013-03-31T15:05:00Z</time>
      </trkpt>
      <trkpt lat="43.32922" lon="-0.23318">
        <ele>300.55</ele>
        <time>2013-03-31T15:05:05Z</time>
      </trkpt>
      <trkpt lat="43.32912" lon="-0.23308">
        <ele>300.55</ele>
        <time>2013-03-31T15:05:10Z</time>
      </trkpt>
      <trkpt lat="43.329" lon="-0.23297">
        <ele>300.07</ele>
        <time>2013-03-31T15:05:15Z</time>
      </trkpt>
      <trkpt lat="43.32889" lon="-0.2329">
        <ele>300.55</ele>
        <time>2013-03-31T15:05:22Z</time>
      </trkpt>
      <trkpt lat="43.32877" lon="-0.23281">
        <ele>301.03</ele>
        <time>2013-03-31T15:05:28Z</time>
      </trkpt>
      <trkpt lat="43.32867" lon="-0.23274">
        <ele>300.55</ele>
        <time>2013-03-31T15:05:33Z</time>
      </trkpt>
      <trkpt lat="43.32858" lon="-0.23268">
        <ele>301.51</ele>
        <time>2013-03-31T15:05:38Z</time>
      </trkpt>
      <trkpt lat="43.32847" lon="-0.23264">
        <ele>301.99</ele>
        <time>2013-03-31T15:05:43Z</time>
      </trkpt>
      <trkpt lat="43.32837" lon="-0.23259">
        <ele>301.99</ele>
        <time>2013-03-31T15:05:48Z</time>
      </trkpt>
      <trkpt lat="43.32827" lon="-0.23257">
        <ele>301.99</ele>
        <time>2013-03-31T15:05:53Z</time>
      </trkpt>
      <trkpt lat="43.32816" lon="-0.23254">
        <ele>302.47</ele>
        <time>2013-03-31T15:05:58Z</time>
      </trkpt>
      <trkpt lat="43.32806" lon="-0.23251">
        <ele>302.95</ele>
        <time>2013-03-31T15:06:03Z</time>
      </trkpt>
      <trkpt lat="43.32795" lon="-0.23247">
        <ele>301.99</ele>
        <time>2013-03-31T15:06:09Z</time>
      </trkpt>
      <trkpt lat="43.32784" lon="-0.23242">
        <ele>301.99</ele>
        <time>2013-03-31T15:06:13Z</time>
      </trkpt>
      <trkpt lat="43.32772" lon="-0.23238">
        <ele>301.51</ele>
        <time>2013-03-31T15:06:18Z</time>
      </trkpt>
      <trkpt lat="43.32762" lon="-0.23232">
        <ele>301.99</ele>
        <time>2013-03-31T15:06:23Z</time>
      </trkpt>
      <trkpt lat="43.32752" lon="-0.23226">
        <ele>301.03</ele>
        <time>2013-03-31T15:06:28Z</time>
      </trkpt>
      <trkpt lat="43.32742" lon="-0.23222">
        <ele>301.03</ele>
        <time>2013-03-31T15:06:32Z</time>
      </trkpt>
      <trkpt lat="43.32731" lon="-0.23218">
        <ele>301.51</ele>
        <time>2013-03-31T15:06:37Z</time>
      </trkpt>
      <trkpt lat="43.32719" lon="-0.23215">
        <ele>301.51</ele>
        <time>2013-03-31T15:06:42Z</time>
      </trkpt>
      <trkpt lat="43.32708" lon="-0.23213">
        <ele>301.51</ele>
        <time>2013-03-31T15:06:46Z</time>
      </trkpt>
      <trkpt lat="43.32697" lon="-0.23208">
        <ele>300.55</ele>
        <time>2013-03-31T15:06:50Z</time>
      </trkpt>
      <trkpt lat="43.32687" lon="-0.23203">
        <ele>301.03</ele>
        <time>2013-03-31T15:06:55Z</time>
      </trkpt>
      <trkpt lat="43.32675" lon="-0.23199">
        <ele>300.55</ele>
        <time>2013-03-31T15:07:01Z</time>
      </trkpt>
      <trkpt lat="43.32663" lon="-0.23198">
        <ele>301.03</ele>
        <time>2013-03-31T15:07:06Z</time>
      </trkpt>
      <trkpt lat="43.32652" lon="-0.23192">
        <ele>301.03</ele>
        <time>2013-03-31T15:07:12Z</time>
      </trkpt>
      <trkpt lat="43.32641" lon="-0.23191">
        <ele>301.51</ele>
        <time>2013-03-31T15:07:18Z</time>
      </trkpt>
      <trkpt lat="43.32631" lon="-0.23193">
        <ele>301.51</ele>
        <time>2013-03-31T15:07:23Z</time>
      </trkpt>
      <trkpt lat="43.3262" lon="-0.23197">
        <ele>301.51</ele>
        <time>2013-03-31T15:07:28Z</time>
      </trkpt>
      <trkpt lat="43.32609" lon="-0.23202">
        <ele>301.99</ele>
        <time>2013-03-31T15:07:34Z</time>
      </trkpt>
      <trkpt lat="43.32598" lon="-0.232">
        <ele>301.99</ele>
        <time>2013-03-31T15:07:39Z</time>
      </trkpt>
      <trkpt lat="43.32587" lon="-0.23196">
        <ele>301.99</ele>
        <time>2013-03-31T15:07:44Z</time>
      </trkpt>
      <trkpt lat="43.32576" lon="-0.23191">
        <ele>302.47</ele>
        <time>2013-03-31T15:07:50Z</time>
      </trkpt>
      <trkpt lat="43.32566" lon="-0.23188">
        <ele>302.95</ele>
        <time>2013-03-31T15:07:56Z</time>
      </trkpt>
      <trkpt lat="43.32558" lon="-0.23182">
        <ele>302.95</ele>
        <time>2013-03-31T15:08:14Z</time>
      </trkpt>
      <trkpt lat="43.32552" lon="-0.23177">
        <ele>303.43</ele>
        <time>2013-03-31T15:08:34Z</time>
      </trkpt>
      <trkpt lat="43.32543" lon="-0.23167">
        <ele>303.91</ele>
        <time>2013-03-31T15:08:45Z</time>
      </trkpt>
      <trkpt lat="43.32534" lon="-0.23163">
        <ele>303.91</ele>
        <time>2013-03-31T15:08:59Z</time>
      </trkpt>
      <trkpt lat="43.32524" lon="-0.2316">
        <ele>303.43</ele>
        <time>2013-03-31T15:09:06Z</time>
      </trkpt>
      <trkpt lat="43.32515" lon="-0.23147">
        <ele>303.91</ele>
        <time>2013-03-31T15:09:12Z</time>
      </trkpt>
      <trkpt lat="43.32507" lon="-0.23137">
        <ele>303.91</ele>
        <time>2013-03-31T15:09:17Z</time>
      </trkpt>
      <trkpt lat="43.32498" lon="-0.23124">
        <ele>303.91</ele>
        <time>2013-03-31T15:09:22Z</time>
      </trkpt>
      <trkpt lat="43.3249" lon="-0.23113">
        <ele>304.39</ele>
        <time>2013-03-31T15:09:27Z</time>
      </trkpt>
      <trkpt lat="43.3248" lon="-0.23106">
        <ele>303.91</ele>
        <time>2013-03-31T15:09:32Z</time>
      </trkpt>
      <trkpt lat="43.3247" lon="-0.23103">
        <ele>303.91</ele>
        <time>2013-03-31T15:09:36Z</time>
      </trkpt>
      <trkpt lat="43.3246" lon="-0.23101">
        <ele>303.91</ele>
        <time>2013-03-31T15:09:40Z</time>
      </trkpt>
      <trkpt lat="43.32451" lon="-0.23098">
        <ele>303.91</ele>
        <time>2013-03-31T15:09:44Z</time>
      </trkpt>
      <trkpt lat="43.32441" lon="-0.23093">
        <ele>304.39</ele>
        <time>2013-03-31T15:09:49Z</time>
      </trkpt>
      <trkpt lat="43.32431" lon="-0.23089">
        <ele>304.39</ele>
        <time>2013-03-31T15:09:55Z</time>
      </trkpt>
      <trkpt lat="43.32418" lon="-0.23084">
        <ele>304.88</ele>
        <time>2013-03-31T15:10:01Z</time>
      </trkpt>
      <trkpt lat="43.32405" lon="-0.23078">
        <ele>305.36</ele>
        <time>2013-03-31T15:10:06Z</time>
      </trkpt>
      <trkpt lat="43.32394" lon="-0.23075">
        <ele>305.36</ele>
        <time>2013-03-31T15:10:11Z</time>
      </trkpt>
      <trkpt lat="43.32383" lon="-0.23069">
        <ele>305.36</ele>
        <time>2013-03-31T15:10:16Z</time>
      </trkpt>
      <trkpt lat="43.3237" lon="-0.23062">
        <ele>305.84</ele>
        <time>2013-03-31T15:10:22Z</time>
      </trkpt>
      <trkpt lat="43.32358" lon="-0.23058">
        <ele>306.32</ele>
        <time>2013-03-31T15:10:28Z</time>
      </trkpt>
      <trkpt lat="43.32347" lon="-0.23052">
        <ele>306.32</ele>
        <time>2013-03-31T15:10:34Z</time>
      </trkpt>
      <trkpt lat="43.32334" lon="-0.23049">
        <ele>306.8</ele>
        <time>2013-03-31T15:10:40Z</time>
      </trkpt>
      <trkpt lat="43.32322" lon="-0.23046">
        <ele>306.8</ele>
        <time>2013-03-31T15:10:47Z</time>
      </trkpt>
      <trkpt lat="43.3231" lon="-0.23044">
        <ele>307.28</ele>
        <time>2013-03-31T15:10:53Z</time>
      </trkpt>
      <trkpt lat="43.32297" lon="-0.23038">
        <ele>307.28</ele>
        <time>2013-03-31T15:10:59Z</time>
      </trkpt>
      <trkpt lat="43.32288" lon="-0.23031">
        <ele>307.76</ele>
        <time>2013-03-31T15:11:05Z</time>
      </trkpt>
      <trkpt lat="43.32275" lon="-0.23029">
        <ele>307.28</ele>
        <time>2013-03-31T15:11:10Z</time>
      </trkpt>
      <trkpt lat="43.3226" lon="-0.2303">
        <ele>307.76</ele>
        <time>2013-03-31T15:11:16Z</time>
      </trkpt>
      <trkpt lat="43.32244" lon="-0.23031">
        <ele>308.72</ele>
        <time>2013-03-31T15:11:24Z</time>
      </trkpt>
      <trkpt lat="43.32228" lon="-0.23032">
        <ele>309.2</ele>
        <time>2013-03-31T15:11:32Z</time>
      </trkpt>
      <trkpt lat="43.32214" lon="-0.23031">
        <ele>310.16</ele>
        <time>2013-03-31T15:11:40Z</time>
      </trkpt>
      <trkpt lat="43.32217" lon="-0.23024">
        <ele>311.12</ele>
        <time>2013-03-31T15:12:13Z</time>
      </trkpt>
      <trkpt lat="43.32225" lon="-0.2302">
        <ele>310.16</ele>
        <time>2013-03-31T15:12:25Z</time>
      </trkpt>
      <trkpt lat="43.32237" lon="-0.23018">
        <ele>310.64</ele>
        <time>2013-03-31T15:12:31Z</time>
      </trkpt>
      <trkpt lat="43.32253" lon="-0.23017">
        <ele>310.64</ele>
        <time>2013-03-31T15:12:38Z</time>
      </trkpt>
      <trkpt lat="43.32265" lon="-0.23012">
        <ele>310.64</ele>
        <time>2013-03-31T15:12:45Z</time>
      </trkpt>
      <trkpt lat="43.32278" lon="-0.23009">
        <ele>311.12</ele>
        <time>2013-03-31T15:12:53Z</time>
      </trkpt>
      <trkpt lat="43.32293" lon="-0.23006">
        <ele>311.6</ele>
        <time>2013-03-31T15:13:00Z</time>
      </trkpt>
      <trkpt lat="43.32308" lon="-0.23003">
        <ele>312.09</ele>
        <time>2013-03-31T15:13:07Z</time>
      </trkpt>
      <trkpt lat="43.32321" lon="-0.23004">
        <ele>312.09</ele>
        <time>2013-03-31T15:13:16Z</time>
      </trkpt>
      <trkpt lat="43.32335" lon="-0.23005">
        <ele>311.6</ele>
        <time>2013-03-31T15:13:23Z</time>
      </trkpt>
      <trkpt lat="43.32347" lon="-0.23006">
        <ele>311.6</ele>
        <time>2013-03-31T15:13:32Z</time>
      </trkpt>
      <trkpt lat="43.32365" lon="-0.23005">
        <ele>312.09</ele>
        <time>2013-03-31T15:13:45Z</time>
      </trkpt>
      <trkpt lat="43.32378" lon="-0.23003">
        <ele>312.57</ele>
        <time>2013-03-31T15:13:58Z</time>
      </trkpt>
      <trkpt lat="43.32391" lon="-0.23002">
        <ele>313.05</ele>
        <time>2013-03-31T15:14:12Z</time>
      </trkpt>
      <trkpt lat="43.32403" lon="-0.23005">
        <ele>313.05</ele>
        <time>2013-03-31T15:14:26Z</time>
      </trkpt>
      <trkpt lat="43.32416" lon="-0.23006">
        <ele>313.53</ele>
        <time>2013-03-31T15:14:38Z</time>
      </trkpt>
      <trkpt lat="43.32431" lon="-0.22998">
        <ele>314.49</ele>
        <time>2013-03-31T15:14:52Z</time>
      </trkpt>
      <trkpt lat="43.32443" lon="-0.22994">
        <ele>314.49</ele>
        <time>2013-03-31T15:15:03Z</time>
      </trkpt>
      <trkpt lat="43.32453" lon="-0.22994">
        <ele>313.53</ele>
        <time>2013-03-31T15:15:13Z</time>
      </trkpt>
      <trkpt lat="43.32468" lon="-0.22996">
        <ele>313.05</ele>
        <time>2013-03-31T15:15:27Z</time>
      </trkpt>
      <trkpt lat="43.32479" lon="-0.22995">
        <ele>313.53</ele>
        <time>2013-03-31T15:15:37Z</time>
      </trkpt>
      <trkpt lat="43.32492" lon="-0.22994">
        <ele>313.53</ele>
        <time>2013-03-31T15:15:47Z</time>
      </trkpt>
      <trkpt lat="43.32503" lon="-0.22993">
        <ele>313.53</ele>
        <time>2013-03-31T15:15:57Z</time>
      </trkpt>
      <trkpt lat="43.32514" lon="-0.22994">
        <ele>313.53</ele>
        <time>2013-03-31T15:16:06Z</time>
      </trkpt>
      <trkpt lat="43.32525" lon="-0.22994">
        <ele>313.53</ele>
        <time>2013-03-31T15:16:16Z</time>
      </trkpt>
      <trkpt lat="43.32534" lon="-0.22995">
        <ele>313.53</ele>
        <time>2013-03-31T15:16:26Z</time>
      </trkpt>
      <trkpt lat="43.32544" lon="-0.22993">
        <ele>313.05</ele>
        <time>2013-03-31T15:16:36Z</time>
      </trkpt>
      <trkpt lat="43.3255" lon="-0.22983">
        <ele>313.53</ele>
        <time>2013-03-31T15:16:46Z</time>
      </trkpt>
      <trkpt lat="43.32553" lon="-0.22966">
        <ele>314.49</ele>
        <time>2013-03-31T15:16:56Z</time>
      </trkpt>
      <trkpt lat="43.32553" lon="-0.22951">
        <ele>314.97</ele>
        <time>2013-03-31T15:17:06Z</time>
      </trkpt>
      <trkpt lat="43.32544" lon="-0.22944">
        <ele>314.01</ele>
        <time>2013-03-31T15:17:16Z</time>
      </trkpt>
      <trkpt lat="43.32534" lon="-0.22937">
        <ele>314.49</ele>
        <time>2013-03-31T15:17:22Z</time>
      </trkpt>
      <trkpt lat="43.32526" lon="-0.22927">
        <ele>315.45</ele>
        <time>2013-03-31T15:17:28Z</time>
      </trkpt>
      <trkpt lat="43.32518" lon="-0.22919">
        <ele>315.45</ele>
        <time>2013-03-31T15:17:33Z</time>
      </trkpt>
      <trkpt lat="43.32511" lon="-0.22909">
        <ele>316.41</ele>
        <time>2013-03-31T15:17:39Z</time>
      </trkpt>
      <trkpt lat="43.32504" lon="-0.22899">
        <ele>316.89</ele>
        <time>2013-03-31T15:17:45Z</time>
      </trkpt>
      <trkpt lat="43.32499" lon="-0.22889">
        <ele>316.89</ele>
        <time>2013-03-31T15:17:58Z</time>
      </trkpt>
      <trkpt lat="43.32493" lon="-0.22875">
        <ele>317.85</ele>
        <time>2013-03-31T15:18:04Z</time>
      </trkpt>
      <trkpt lat="43.32488" lon="-0.22864">
        <ele>318.33</ele>
        <time>2013-03-31T15:18:09Z</time>
      </trkpt>
      <trkpt lat="43.32482" lon="-0.22851">
        <ele>318.81</ele>
        <time>2013-03-31T15:18:15Z</time>
      </trkpt>
      <trkpt lat="43.32479" lon="-0.22839">
        <ele>318.81</ele>
        <time>2013-03-31T15:18:20Z</time>
      </trkpt>
      <trkpt lat="43.32476" lon="-0.22826">
        <ele>319.3</ele>
        <time>2013-03-31T15:18:25Z</time>
      </trkpt>
      <trkpt lat="43.32473" lon="-0.22815">
        <ele>320.26</ele>
        <time>2013-03-31T15:18:30Z</time>
      </trkpt>
      <trkpt lat="43.32468" lon="-0.22802">
        <ele>320.26</ele>
        <time>2013-03-31T15:18:35Z</time>
      </trkpt>
      <trkpt lat="43.32464" lon="-0.22792">
        <ele>321.22</ele>
        <time>2013-03-31T15:18:40Z</time>
      </trkpt>
      <trkpt lat="43.32458" lon="-0.22781">
        <ele>321.22</ele>
        <time>2013-03-31T15:18:45Z</time>
      </trkpt>
      <trkpt lat="43.32451" lon="-0.22771">
        <ele>321.22</ele>
        <time>2013-03-31T15:18:50Z</time>
      </trkpt>
      <trkpt lat="43.32444" lon="-0.22762">
        <ele>321.7</ele>
        <time>2013-03-31T15:18:55Z</time>
      </trkpt>
      <trkpt lat="43.32436" lon="-0.22752">
        <ele>321.7</ele>
        <time>2013-03-31T15:19:00Z</time>
      </trkpt>
      <trkpt lat="43.32429" lon="-0.22743">
        <ele>322.18</ele>
        <time>2013-03-31T15:19:05Z</time>
      </trkpt>
      <trkpt lat="43.32421" lon="-0.22734">
        <ele>322.66</ele>
        <time>2013-03-31T15:19:10Z</time>
      </trkpt>
      <trkpt lat="43.32413" lon="-0.22724">
        <ele>322.66</ele>
        <time>2013-03-31T15:19:15Z</time>
      </trkpt>
      <trkpt lat="43.32405" lon="-0.22713">
        <ele>323.14</ele>
        <time>2013-03-31T15:19:20Z</time>
      </trkpt>
      <trkpt lat="43.32398" lon="-0.22704">
        <ele>322.66</ele>
        <time>2013-03-31T15:19:25Z</time>
      </trkpt>
      <trkpt lat="43.32391" lon="-0.22693">
        <ele>322.66</ele>
        <time>2013-03-31T15:19:30Z</time>
      </trkpt>
      <trkpt lat="43.32383" lon="-0.22683">
        <ele>323.14</ele>
        <time>2013-03-31T15:19:35Z</time>
      </trkpt>
      <trkpt lat="43.32375" lon="-0.22672">
        <ele>322.66</ele>
        <time>2013-03-31T15:19:40Z</time>
      </trkpt>
      <trkpt lat="43.32366" lon="-0.22663">
        <ele>322.66</ele>
        <time>2013-03-31T15:19:45Z</time>
      </trkpt>
      <trkpt lat="43.32359" lon="-0.22652">
        <ele>323.14</ele>
        <time>2013-03-31T15:19:50Z</time>
      </trkpt>
      <trkpt lat="43.32352" lon="-0.22643">
        <ele>323.14</ele>
        <time>2013-03-31T15:19:54Z</time>
      </trkpt>
      <trkpt lat="43.32344" lon="-0.22635">
        <ele>323.14</ele>
        <time>2013-03-31T15:19:58Z</time>
      </trkpt>
      <trkpt lat="43.32336" lon="-0.22627">
        <ele>323.14</ele>
        <time>2013-03-31T15:20:02Z</time>
      </trkpt>
      <trkpt lat="43.32329" lon="-0.2262">
        <ele>323.62</ele>
        <time>2013-03-31T15:20:06Z</time>
      </trkpt>
      <trkpt lat="43.3232" lon="-0.22613">
        <ele>324.1</ele>
        <time>2013-03-31T15:20:10Z</time>
      </trkpt>
      <trkpt lat="43.3231" lon="-0.22605">
        <ele>323.62</ele>
        <time>2013-03-31T15:20:14Z</time>
      </trkpt>
      <trkpt lat="43.32302" lon="-0.22599">
        <ele>323.62</ele>
        <time>2013-03-31T15:20:18Z</time>
      </trkpt>
      <trkpt lat="43.32293" lon="-0.22594">
        <ele>323.62</ele>
        <time>2013-03-31T15:20:22Z</time>
      </trkpt>
      <trkpt lat="43.32283" lon="-0.22589">
        <ele>323.62</ele>
        <time>2013-03-31T15:20:26Z</time>
      </trkpt>
      <trkpt lat="43.32273" lon="-0.22583">
        <ele>323.62</ele>
        <time>2013-03-31T15:20:30Z</time>
      </trkpt>
      <trkpt lat="43.32266" lon="-0.22574">
        <ele>323.14</ele>
        <time>2013-03-31T15:20:34Z</time>
      </trkpt>
      <trkpt lat="43.32266" lon="-0.2256">
        <ele>323.14</ele>
        <time>2013-03-31T15:20:39Z</time>
      </trkpt>
      <trkpt lat="43.32275" lon="-0.22552">
        <ele>323.62</ele>
        <time>2013-03-31T15:20:43Z</time>
      </trkpt>
      <trkpt lat="43.32281" lon="-0.2254">
        <ele>323.62</ele>
        <time>2013-03-31T15:20:48Z</time>
      </trkpt>
      <trkpt lat="43.3228" lon="-0.22526">
        <ele>323.14</ele>
        <time>2013-03-31T15:20:53Z</time>
      </trkpt>
      <trkpt lat="43.32279" lon="-0.22513">
        <ele>323.62</ele>
        <time>2013-03-31T15:20:58Z</time>
      </trkpt>
      <trkpt lat="43.32278" lon="-0.225">
        <ele>323.62</ele>
        <time>2013-03-31T15:21:07Z</time>
      </trkpt>
      <trkpt lat="43.32278" lon="-0.22487">
        <ele>324.1</ele>
        <time>2013-03-31T15:21:15Z</time>
      </trkpt>
      <trkpt lat="43.32276" lon="-0.22473">
        <ele>324.1</ele>
        <time>2013-03-31T15:21:24Z</time>
      </trkpt>
      <trkpt lat="43.32273" lon="-0.2246">
        <ele>324.58</ele>
        <time>2013-03-31T15:21:39Z</time>
      </trkpt>
      <trkpt lat="43.32272" lon="-0.22447">
        <ele>324.58</ele>
        <time>2013-03-31T15:21:47Z</time>
      </trkpt>
      <trkpt lat="43.3227" lon="-0.22435">
        <ele>324.58</ele>
        <time>2013-03-31T15:21:55Z</time>
      </trkpt>
      <trkpt lat="43.32269" lon="-0.22422">
        <ele>325.06</ele>
        <time>2013-03-31T15:22:03Z</time>
      </trkpt>
      <trkpt lat="43.32267" lon="-0.22409">
        <ele>325.06</ele>
        <time>2013-03-31T15:22:12Z</time>
      </trkpt>
      <trkpt lat="43.32266" lon="-0.22396">
        <ele>325.06</ele>
        <time>2013-03-31T15:22:20Z</time>
      </trkpt>
      <trkpt lat="43.32264" lon="-0.22384">
        <ele>325.06</ele>
        <time>2013-03-31T15:22:28Z</time>
      </trkpt>
      <trkpt lat="43.32264" lon="-0.22371">
        <ele>325.06</ele>
        <time>2013-03-31T15:22:36Z</time>
      </trkpt>
      <trkpt lat="43.3226" lon="-0.2236">
        <ele>325.06</ele>
        <time>2013-03-31T15:22:45Z</time>
      </trkpt>
      <trkpt lat="43.32253" lon="-0.22348">
        <ele>325.06</ele>
        <time>2013-03-31T15:22:55Z</time>
      </trkpt>
      <trkpt lat="43.32248" lon="-0.22335">
        <ele>325.54</ele>
        <time>2013-03-31T15:23:04Z</time>
      </trkpt>
      <trkpt lat="43.32244" lon="-0.22321">
        <ele>325.06</ele>
        <time>2013-03-31T15:23:13Z</time>
      </trkpt>
      <trkpt lat="43.32239" lon="-0.22309">
        <ele>326.02</ele>
        <time>2013-03-31T15:23:22Z</time>
      </trkpt>
      <trkpt lat="43.32235" lon="-0.22297">
        <ele>325.54</ele>
        <time>2013-03-31T15:23:31Z</time>
      </trkpt>
      <trkpt lat="43.3223" lon="-0.22283">
        <ele>325.54</ele>
        <time>2013-03-31T15:23:41Z</time>
      </trkpt>
      <trkpt lat="43.32226" lon="-0.22271">
        <ele>325.54</ele>
        <time>2013-03-31T15:23:51Z</time>
      </trkpt>
      <trkpt lat="43.32222" lon="-0.22259">
        <ele>326.02</ele>
        <time>2013-03-31T15:24:00Z</time>
      </trkpt>
      <trkpt lat="43.32217" lon="-0.22248">
        <ele>326.5</ele>
        <time>2013-03-31T15:24:10Z</time>
      </trkpt>
      <trkpt lat="43.32212" lon="-0.22236">
        <ele>326.02</ele>
        <time>2013-03-31T15:24:19Z</time>
      </trkpt>
      <trkpt lat="43.32206" lon="-0.22223">
        <ele>325.54</ele>
        <time>2013-03-31T15:24:28Z</time>
      </trkpt>
      <trkpt lat="43.32201" lon="-0.22211">
        <ele>326.02</ele>
        <time>2013-03-31T15:24:37Z</time>
      </trkpt>
      <trkpt lat="43.32197" lon="-0.222">
        <ele>326.99</ele>
        <time>2013-03-31T15:24:46Z</time>
      </trkpt>
      <trkpt lat="43.32194" lon="-0.22188">
        <ele>326.99</ele>
        <time>2013-03-31T15:24:54Z</time>
      </trkpt>
      <trkpt lat="43.32188" lon="-0.22177">
        <ele>326.99</ele>
        <time>2013-03-31T15:25:07Z</time>
      </trkpt>
      <trkpt lat="43.32184" lon="-0.22162">
        <ele>326.99</ele>
        <time>2013-03-31T15:25:13Z</time>
      </trkpt>
      <trkpt lat="43.32179" lon="-0.2215">
        <ele>326.99</ele>
        <time>2013-03-31T15:25:19Z</time>
      </trkpt>
      <trkpt lat="43.32174" lon="-0.22137">
        <ele>327.47</ele>
        <time>2013-03-31T15:25:25Z</time>
      </trkpt>
      <trkpt lat="43.32167" lon="-0.22133">
        <ele>327.47</ele>
        <time>2013-03-31T15:25:35Z</time>
      </trkpt>
      <trkpt lat="43.32159" lon="-0.22132">
        <ele>327.47</ele>
        <time>2013-03-31T15:25:46Z</time>
      </trkpt>
      <trkpt lat="43.32149" lon="-0.22129">
        <ele>326.99</ele>
        <time>2013-03-31T15:25:56Z</time>
      </trkpt>
      <trkpt lat="43.32145" lon="-0.22117">
        <ele>327.47</ele>
        <time>2013-03-31T15:26:06Z</time>
      </trkpt>
      <trkpt lat="43.32141" lon="-0.22104">
        <ele>327.47</ele>
        <time>2013-03-31T15:26:15Z</time>
      </trkpt>
      <trkpt lat="43.32136" lon="-0.2209">
        <ele>327.95</ele>
        <time>2013-03-31T15:26:25Z</time>
      </trkpt>
      <trkpt lat="43.32133" lon="-0.22076">
        <ele>327.47</ele>
        <time>2013-03-31T15:26:35Z</time>
      </trkpt>
      <trkpt lat="43.3213" lon="-0.2206">
        <ele>327.47</ele>
        <time>2013-03-31T15:26:45Z</time>
      </trkpt>
      <trkpt lat="43.32127" lon="-0.22046">
        <ele>327.95</ele>
        <time>2013-03-31T15:26:54Z</time>
      </trkpt>
      <trkpt lat="43.32124" lon="-0.22032">
        <ele>328.43</ele>
        <time>2013-03-31T15:27:02Z</time>
      </trkpt>
      <trkpt lat="43.3212" lon="-0.22019">
        <ele>328.43</ele>
        <time>2013-03-31T15:27:11Z</time>
      </trkpt>
      <trkpt lat="43.32117" lon="-0.22006">
        <ele>328.43</ele>
        <time>2013-03-31T15:27:21Z</time>
      </trkpt>
      <trkpt lat="43.32112" lon="-0.21993">
        <ele>328.91</ele>
        <time>2013-03-31T15:27:30Z</time>
      </trkpt>
      <trkpt lat="43.32109" lon="-0.21979">
        <ele>328.91</ele>
        <time>2013-03-31T15:27:40Z</time>
      </trkpt>
      <trkpt lat="43.32106" lon="-0.21966">
        <ele>328.91</ele>
        <time>2013-03-31T15:27:51Z</time>
      </trkpt>
      <trkpt lat="43.32101" lon="-0.2195">
        <ele>329.87</ele>
        <time>2013-03-31T15:28:02Z</time>
      </trkpt>
      <trkpt lat="43.32099" lon="-0.21936">
        <ele>329.39</ele>
        <time>2013-03-31T15:28:11Z</time>
      </trkpt>
      <trkpt lat="43.32094" lon="-0.21923">
        <ele>329.39</ele>
        <time>2013-03-31T15:28:21Z</time>
      </trkpt>
      <trkpt lat="43.32098" lon="-0.21912">
        <ele>329.39</ele>
        <time>2013-03-31T15:28:29Z</time>
      </trkpt>
      <trkpt lat="43.32101" lon="-0.21899">
        <ele>329.87</ele>
        <time>2013-03-31T15:28:37Z</time>
      </trkpt>
      <trkpt lat="43.32103" lon="-0.21887">
        <ele>329.87</ele>
        <time>2013-03-31T15:28:41Z</time>
      </trkpt>
      <trkpt lat="43.32106" lon="-0.21873">
        <ele>330.35</ele>
        <time>2013-03-31T15:28:45Z</time>
      </trkpt>
      <trkpt lat="43.32108" lon="-0.21861">
        <ele>329.87</ele>
        <time>2013-03-31T15:28:49Z</time>
      </trkpt>
      <trkpt lat="43.3211" lon="-0.21848">
        <ele>330.83</ele>
        <time>2013-03-31T15:28:53Z</time>
      </trkpt>
      <trkpt lat="43.32112" lon="-0.21833">
        <ele>330.83</ele>
        <time>2013-03-31T15:28:57Z</time>
      </trkpt>
      <trkpt lat="43.32114" lon="-0.21819">
        <ele>331.31</ele>
        <time>2013-03-31T15:29:01Z</time>
      </trkpt>
      <trkpt lat="43.32117" lon="-0.21805">
        <ele>330.83</ele>
        <time>2013-03-31T15:29:05Z</time>
      </trkpt>
      <trkpt lat="43.3212" lon="-0.21791">
        <ele>330.83</ele>
        <time>2013-03-31T15:29:09Z</time>
      </trkpt>
      <trkpt lat="43.32124" lon="-0.21777">
        <ele>331.31</ele>
        <time>2013-03-31T15:29:13Z</time>
      </trkpt>
      <trkpt lat="43.32125" lon="-0.21763">
        <ele>331.31</ele>
        <time>2013-03-31T15:29:17Z</time>
      </trkpt>
      <trkpt lat="43.32126" lon="-0.21749">
        <ele>330.35</ele>
        <time>2013-03-31T15:29:21Z</time>
      </trkpt>
      <trkpt lat="43.32125" lon="-0.21735">
        <ele>330.83</ele>
        <time>2013-03-31T15:29:25Z</time>
      </trkpt>
      <trkpt lat="43.32122" lon="-0.21723">
        <ele>329.87</ele>
        <time>2013-03-31T15:29:28Z</time>
      </trkpt>
      <trkpt lat="43.32117" lon="-0.21712">
        <ele>330.35</ele>
        <time>2013-03-31T15:29:31Z</time>
      </trkpt>
      <trkpt lat="43.32111" lon="-0.21702">
        <ele>329.87</ele>
        <time>2013-03-31T15:29:34Z</time>
      </trkpt>
      <trkpt lat="43.32104" lon="-0.21689">
        <ele>330.35</ele>
        <time>2013-03-31T15:29:38Z</time>
      </trkpt>
      <trkpt lat="43.32099" lon="-0.21678">
        <ele>330.35</ele>
        <time>2013-03-31T15:29:41Z</time>
      </trkpt>
      <trkpt lat="43.32094" lon="-0.21664">
        <ele>330.83</ele>
        <time>2013-03-31T15:29:45Z</time>
      </trkpt>
      <trkpt lat="43.32091" lon="-0.21651">
        <ele>330.35</ele>
        <time>2013-03-31T15:29:49Z</time>
      </trkpt>
      <trkpt lat="43.32096" lon="-0.21639">
        <ele>329.87</ele>
        <time>2013-03-31T15:29:53Z</time>
      </trkpt>
      <trkpt lat="43.32105" lon="-0.21629">
        <ele>330.35</ele>
        <time>2013-03-31T15:29:57Z</time>
      </trkpt>
      <trkpt lat="43.32115" lon="-0.2162">
        <ele>330.83</ele>
        <time>2013-03-31T15:30:01Z</time>
      </trkpt>
      <trkpt lat="43.32125" lon="-0.21613">
        <ele>330.83</ele>
        <time>2013-03-31T15:30:05Z</time>
      </trkpt>
      <trkpt lat="43.32135" lon="-0.21606">
        <ele>330.83</ele>
        <time>2013-03-31T15:30:09Z</time>
      </trkpt>
      <trkpt lat="43.32145" lon="-0.21601">
        <ele>331.31</ele>
        <time>2013-03-31T15:30:13Z</time>
      </trkpt>
      <trkpt lat="43.32155" lon="-0.21596">
        <ele>331.31</ele>
        <time>2013-03-31T15:30:17Z</time>
      </trkpt>
      <trkpt lat="43.32165" lon="-0.21591">
        <ele>331.79</ele>
        <time>2013-03-31T15:30:21Z</time>
      </trkpt>
      <trkpt lat="43.32175" lon="-0.21584">
        <ele>332.75</ele>
        <time>2013-03-31T15:30:25Z</time>
      </trkpt>
      <trkpt lat="43.32185" lon="-0.21579">
        <ele>332.75</ele>
        <time>2013-03-31T15:30:29Z</time>
      </trkpt>
      <trkpt lat="43.32195" lon="-0.21574">
        <ele>332.27</ele>
        <time>2013-03-31T15:30:33Z</time>
      </trkpt>
      <trkpt lat="43.32206" lon="-0.21568">
        <ele>331.79</ele>
        <time>2013-03-31T15:30:37Z</time>
      </trkpt>
      <trkpt lat="43.32214" lon="-0.21562">
        <ele>331.79</ele>
        <time>2013-03-31T15:30:40Z</time>
      </trkpt>
      <trkpt lat="43.32223" lon="-0.21557">
        <ele>331.79</ele>
        <time>2013-03-31T15:30:43Z</time>
      </trkpt>
      <trkpt lat="43.32231" lon="-0.2155">
        <ele>331.79</ele>
        <time>2013-03-31T15:30:46Z</time>
      </trkpt>
      <trkpt lat="43.32241" lon="-0.2154">
        <ele>331.79</ele>
        <time>2013-03-31T15:30:50Z</time>
      </trkpt>
      <trkpt lat="43.32248" lon="-0.21534">
        <ele>331.31</ele>
        <time>2013-03-31T15:30:53Z</time>
      </trkpt>
      <trkpt lat="43.32259" lon="-0.21525">
        <ele>331.79</ele>
        <time>2013-03-31T15:30:57Z</time>
      </trkpt>
      <trkpt lat="43.32266" lon="-0.21518">
        <ele>331.31</ele>
        <time>2013-03-31T15:31:00Z</time>
      </trkpt>
      <trkpt lat="43.32274" lon="-0.21512">
        <ele>331.31</ele>
        <time>2013-03-31T15:31:03Z</time>
      </trkpt>
      <trkpt lat="43.32283" lon="-0.21505">
        <ele>331.31</ele>
        <time>2013-03-31T15:31:06Z</time>
      </trkpt>
      <trkpt lat="43.32291" lon="-0.21498">
        <ele>330.83</ele>
        <time>2013-03-31T15:31:09Z</time>
      </trkpt>
      <trkpt lat="43.32302" lon="-0.21496">
        <ele>331.79</ele>
        <time>2013-03-31T15:31:13Z</time>
      </trkpt>
      <trkpt lat="43.32313" lon="-0.21498">
        <ele>331.79</ele>
        <time>2013-03-31T15:31:17Z</time>
      </trkpt>
      <trkpt lat="43.32323" lon="-0.21505">
        <ele>332.27</ele>
        <time>2013-03-31T15:31:21Z</time>
      </trkpt>
      <trkpt lat="43.32333" lon="-0.21514">
        <ele>331.79</ele>
        <time>2013-03-31T15:31:25Z</time>
      </trkpt>
      <trkpt lat="43.32343" lon="-0.21523">
        <ele>331.79</ele>
        <time>2013-03-31T15:31:29Z</time>
      </trkpt>
      <trkpt lat="43.32352" lon="-0.21532">
        <ele>331.79</ele>
        <time>2013-03-31T15:31:33Z</time>
      </trkpt>
      <trkpt lat="43.3236" lon="-0.21539">
        <ele>332.27</ele>
        <time>2013-03-31T15:31:36Z</time>
      </trkpt>
      <trkpt lat="43.32368" lon="-0.21546">
        <ele>331.79</ele>
        <time>2013-03-31T15:31:39Z</time>
      </trkpt>
      <trkpt lat="43.32376" lon="-0.21552">
        <ele>331.79</ele>
        <time>2013-03-31T15:31:42Z</time>
      </trkpt>
      <trkpt lat="43.32384" lon="-0.21559">
        <ele>331.79</ele>
        <time>2013-03-31T15:31:45Z</time>
      </trkpt>
      <trkpt lat="43.32392" lon="-0.21565">
        <ele>331.79</ele>
        <time>2013-03-31T15:31:48Z</time>
      </trkpt>
      <trkpt lat="43.32401" lon="-0.2157">
        <ele>332.27</ele>
        <time>2013-03-31T15:31:51Z</time>
      </trkpt>
      <trkpt lat="43.3241" lon="-0.21574">
        <ele>331.79</ele>
        <time>2013-03-31T15:31:54Z</time>
      </trkpt>
      <trkpt lat="43.32418" lon="-0.21579">
        <ele>332.27</ele>
        <time>2013-03-31T15:31:57Z</time>
      </trkpt>
      <trkpt lat="43.32427" lon="-0.21583">
        <ele>331.79</ele>
        <time>2013-03-31T15:32:00Z</time>
      </trkpt>
      <trkpt lat="43.32436" lon="-0.21587">
        <ele>331.79</ele>
        <time>2013-03-31T15:32:03Z</time>
      </trkpt>
      <trkpt lat="43.32446" lon="-0.21591">
        <ele>331.79</ele>
        <time>2013-03-31T15:32:06Z</time>
      </trkpt>
      <trkpt lat="43.32454" lon="-0.21595">
        <ele>331.79</ele>
        <time>2013-03-31T15:32:09Z</time>
      </trkpt>
      <trkpt lat="43.32465" lon="-0.216">
        <ele>331.79</ele>
        <time>2013-03-31T15:32:13Z</time>
      </trkpt>
      <trkpt lat="43.32474" lon="-0.21604">
        <ele>331.79</ele>
        <time>2013-03-31T15:32:16Z</time>
      </trkpt>
      <trkpt lat="43.32483" lon="-0.21607">
        <ele>331.79</ele>
        <time>2013-03-31T15:32:19Z</time>
      </trkpt>
      <trkpt lat="43.32492" lon="-0.2161">
        <ele>331.31</ele>
        <time>2013-03-31T15:32:22Z</time>
      </trkpt>
      <trkpt lat="43.32502" lon="-0.21614">
        <ele>331.31</ele>
        <time>2013-03-31T15:32:25Z</time>
      </trkpt>
      <trkpt lat="43.32512" lon="-0.21617">
        <ele>331.31</ele>
        <time>2013-03-31T15:32:28Z</time>
      </trkpt>
      <trkpt lat="43.32522" lon="-0.2162">
        <ele>331.31</ele>
        <time>2013-03-31T15:32:31Z</time>
      </trkpt>
      <trkpt lat="43.32532" lon="-0.21623">
        <ele>330.83</ele>
        <time>2013-03-31T15:32:34Z</time>
      </trkpt>
      <trkpt lat="43.32541" lon="-0.21628">
        <ele>330.35</ele>
        <time>2013-03-31T15:32:37Z</time>
      </trkpt>
      <trkpt lat="43.3255" lon="-0.21632">
        <ele>330.35</ele>
        <time>2013-03-31T15:32:40Z</time>
      </trkpt>
      <trkpt lat="43.3256" lon="-0.21635">
        <ele>330.83</ele>
        <time>2013-03-31T15:32:43Z</time>
      </trkpt>
      <trkpt lat="43.32569" lon="-0.21639">
        <ele>330.35</ele>
        <time>2013-03-31T15:32:46Z</time>
      </trkpt>
      <trkpt lat="43.32579" lon="-0.21644">
        <ele>329.87</ele>
        <time>2013-03-31T15:32:49Z</time>
      </trkpt>
      <trkpt lat="43.32588" lon="-0.21651">
        <ele>329.87</ele>
        <time>2013-03-31T15:32:52Z</time>
      </trkpt>
      <trkpt lat="43.32597" lon="-0.21658">
        <ele>330.35</ele>
        <time>2013-03-31T15:32:55Z</time>
      </trkpt>
      <trkpt lat="43.32605" lon="-0.21666">
        <ele>329.87</ele>
        <time>2013-03-31T15:32:58Z</time>
      </trkpt>
      <trkpt lat="43.32614" lon="-0.21673">
        <ele>330.35</ele>
        <time>2013-03-31T15:33:01Z</time>
      </trkpt>
      <trkpt lat="43.32623" lon="-0.21681">
        <ele>329.87</ele>
        <time>2013-03-31T15:33:04Z</time>
      </trkpt>
      <trkpt lat="43.32632" lon="-0.21688">
        <ele>329.87</ele>
        <time>2013-03-31T15:33:07Z</time>
      </trkpt>
      <trkpt lat="43.32642" lon="-0.21695">
        <ele>329.87</ele>
        <time>2013-03-31T15:33:11Z</time>
      </trkpt>
      <trkpt lat="43.32651" lon="-0.21703">
        <ele>329.39</ele>
        <time>2013-03-31T15:33:15Z</time>
      </trkpt>
      <trkpt lat="43.32661" lon="-0.21711">
        <ele>329.87</ele>
        <time>2013-03-31T15:33:19Z</time>
      </trkpt>
      <trkpt lat="43.32669" lon="-0.21716">
        <ele>329.87</ele>
        <time>2013-03-31T15:33:23Z</time>
      </trkpt>
      <trkpt lat="43.32674" lon="-0.21716">
        <ele>329.87</ele>
        <time>2013-03-31T15:34:16Z</time>
      </trkpt>
    </trkseg>
  </trk>
</gpx>